<?xml version="1.0" encoding="UTF-8" standalone="no" ?>
<gpx xmlns="http://www.topografix.com/GPX/1/1" xmlns:xsi="http://www.w3.org/2001/XMLSchema-instance" xsi:schemaLocation="http://www.topografix.com/GPX/1/1 http://www.topografix.com/GPX/1/1/gpx.xsd" version="1.1" creator="VisuGPX - https://www.visugpx.com">
  <metadata>
    <name>2024 05 22 Parcours Total 2024</name>
  </metadata>
  <trk>
    <name><![CDATA[VTT3]]></name>
    <extensions>
      <line xmlns="http://www.topografix.com/GPX/gpx_style/0/2">
        <color>1eff00</color>
        <width>4</width>
      </line>
    </extensions>
    <trkseg>
      <trkpt lat="48.0768" lon="3.2627">
        <ele>105.7</ele>
      </trkpt>
      <trkpt lat="48.07675" lon="3.26441">
        <ele>102.6</ele>
      </trkpt>
      <trkpt lat="48.07671" lon="3.26497">
        <ele>101.7</ele>
      </trkpt>
      <trkpt lat="48.0766" lon="3.26559">
        <ele>100.7</ele>
      </trkpt>
      <trkpt lat="48.07661" lon="3.26606">
        <ele>100.4</ele>
        <time>2024-03-30T11:37:02.000Z</time>
      </trkpt>
      <trkpt lat="48.07661" lon="3.2661">
        <ele>100.4</ele>
        <time>2024-03-30T11:37:04.000Z</time>
      </trkpt>
      <trkpt lat="48.07661" lon="3.26612">
        <ele>100.4</ele>
        <time>2024-03-30T11:37:05.000Z</time>
      </trkpt>
      <trkpt lat="48.07661" lon="3.26615">
        <ele>100.3</ele>
        <time>2024-03-30T11:37:06.000Z</time>
      </trkpt>
      <trkpt lat="48.07661" lon="3.2662">
        <ele>100.2</ele>
        <time>2024-03-30T11:37:09.000Z</time>
      </trkpt>
      <trkpt lat="48.07661" lon="3.26622">
        <ele>100.1</ele>
        <time>2024-03-30T11:37:10.000Z</time>
      </trkpt>
      <trkpt lat="48.07661" lon="3.26623">
        <ele>100.1</ele>
        <time>2024-03-30T11:37:11.000Z</time>
      </trkpt>
      <trkpt lat="48.07661" lon="3.26625">
        <ele>100</ele>
        <time>2024-03-30T11:37:12.000Z</time>
      </trkpt>
      <trkpt lat="48.07661" lon="3.26627">
        <ele>100</ele>
        <time>2024-03-30T11:37:13.000Z</time>
      </trkpt>
      <trkpt lat="48.07661" lon="3.26628">
        <ele>99.9</ele>
        <time>2024-03-30T11:37:14.000Z</time>
      </trkpt>
      <trkpt lat="48.07662" lon="3.2663">
        <ele>99.8</ele>
        <time>2024-03-30T11:37:15.000Z</time>
      </trkpt>
      <trkpt lat="48.07662" lon="3.26632">
        <ele>99.7</ele>
        <time>2024-03-30T11:37:16.000Z</time>
      </trkpt>
      <trkpt lat="48.07663" lon="3.26633">
        <ele>99.6</ele>
        <time>2024-03-30T11:37:17.000Z</time>
      </trkpt>
      <trkpt lat="48.07664" lon="3.26633">
        <ele>99.5</ele>
        <time>2024-03-30T11:37:18.000Z</time>
      </trkpt>
      <trkpt lat="48.07665" lon="3.26634">
        <ele>99.3</ele>
        <time>2024-03-30T11:37:19.000Z</time>
      </trkpt>
      <trkpt lat="48.07666" lon="3.26635">
        <ele>99.2</ele>
        <time>2024-03-30T11:37:20.000Z</time>
      </trkpt>
      <trkpt lat="48.07667" lon="3.26635">
        <ele>99.2</ele>
        <time>2024-03-30T11:37:21.000Z</time>
      </trkpt>
      <trkpt lat="48.07667" lon="3.26635">
        <ele>99.2</ele>
        <time>2024-03-30T11:37:22.000Z</time>
      </trkpt>
      <trkpt lat="48.07668" lon="3.26635">
        <ele>99.4</ele>
        <time>2024-03-30T11:37:23.000Z</time>
      </trkpt>
      <trkpt lat="48.07669" lon="3.26635">
        <ele>99.6</ele>
        <time>2024-03-30T11:37:24.000Z</time>
      </trkpt>
      <trkpt lat="48.0767" lon="3.26635">
        <ele>99.8</ele>
        <time>2024-03-30T11:37:25.000Z</time>
      </trkpt>
      <trkpt lat="48.0767" lon="3.26635">
        <ele>99.8</ele>
        <time>2024-03-30T11:37:26.000Z</time>
      </trkpt>
      <trkpt lat="48.07671" lon="3.26635">
        <ele>100.1</ele>
        <time>2024-03-30T11:37:27.000Z</time>
      </trkpt>
      <trkpt lat="48.07672" lon="3.26635">
        <ele>100.3</ele>
        <time>2024-03-30T11:37:28.000Z</time>
      </trkpt>
      <trkpt lat="48.07673" lon="3.26634">
        <ele>100.5</ele>
        <time>2024-03-30T11:37:29.000Z</time>
      </trkpt>
      <trkpt lat="48.07676" lon="3.26633">
        <ele>101.2</ele>
        <time>2024-03-30T11:37:32.000Z</time>
      </trkpt>
      <trkpt lat="48.07677" lon="3.26632">
        <ele>101.4</ele>
        <time>2024-03-30T11:37:33.000Z</time>
      </trkpt>
      <trkpt lat="48.07678" lon="3.26632">
        <ele>101.6</ele>
        <time>2024-03-30T11:37:34.000Z</time>
      </trkpt>
      <trkpt lat="48.07679" lon="3.26631">
        <ele>101.8</ele>
        <time>2024-03-30T11:37:35.000Z</time>
      </trkpt>
      <trkpt lat="48.0768" lon="3.26631">
        <ele>102</ele>
        <time>2024-03-30T11:37:36.000Z</time>
      </trkpt>
      <trkpt lat="48.0768" lon="3.26631">
        <ele>102</ele>
        <time>2024-03-30T11:37:37.000Z</time>
      </trkpt>
      <trkpt lat="48.07681" lon="3.2663">
        <ele>102.3</ele>
        <time>2024-03-30T11:37:38.000Z</time>
      </trkpt>
      <trkpt lat="48.07682" lon="3.2663">
        <ele>102.5</ele>
        <time>2024-03-30T11:37:39.000Z</time>
      </trkpt>
      <trkpt lat="48.07682" lon="3.26629">
        <ele>102.5</ele>
        <time>2024-03-30T11:37:40.000Z</time>
      </trkpt>
      <trkpt lat="48.07683" lon="3.26629">
        <ele>102.7</ele>
        <time>2024-03-30T11:37:41.000Z</time>
      </trkpt>
      <trkpt lat="48.07684" lon="3.26629">
        <ele>102.9</ele>
        <time>2024-03-30T11:37:42.000Z</time>
      </trkpt>
      <trkpt lat="48.07685" lon="3.26629">
        <ele>103.1</ele>
        <time>2024-03-30T11:37:43.000Z</time>
      </trkpt>
      <trkpt lat="48.07685" lon="3.26629">
        <ele>103.1</ele>
        <time>2024-03-30T11:37:44.000Z</time>
      </trkpt>
      <trkpt lat="48.07685" lon="3.26629">
        <ele>103.1</ele>
        <time>2024-03-30T11:37:45.000Z</time>
      </trkpt>
      <trkpt lat="48.07685" lon="3.26629">
        <ele>103.1</ele>
        <time>2024-03-30T11:37:47.000Z</time>
      </trkpt>
      <trkpt lat="48.07685" lon="3.26629">
        <ele>103.1</ele>
        <time>2024-03-30T11:37:50.000Z</time>
      </trkpt>
      <trkpt lat="48.07685" lon="3.26629">
        <ele>103.1</ele>
        <time>2024-03-30T11:37:51.000Z</time>
      </trkpt>
      <trkpt lat="48.07685" lon="3.26629">
        <ele>103.1</ele>
        <time>2024-03-30T11:37:58.000Z</time>
      </trkpt>
      <trkpt lat="48.07685" lon="3.26629">
        <ele>103.1</ele>
        <time>2024-03-30T11:38:00.000Z</time>
      </trkpt>
      <trkpt lat="48.07685" lon="3.26629">
        <ele>103.1</ele>
        <time>2024-03-30T11:38:06.000Z</time>
      </trkpt>
      <trkpt lat="48.07685" lon="3.26629">
        <ele>103.1</ele>
        <time>2024-03-30T11:38:08.000Z</time>
      </trkpt>
      <trkpt lat="48.07686" lon="3.26629">
        <ele>103.3</ele>
        <time>2024-03-30T11:38:09.000Z</time>
      </trkpt>
      <trkpt lat="48.07686" lon="3.26629">
        <ele>103.3</ele>
        <time>2024-03-30T11:38:10.000Z</time>
      </trkpt>
      <trkpt lat="48.07686" lon="3.26629">
        <ele>103.3</ele>
        <time>2024-03-30T11:38:11.000Z</time>
      </trkpt>
      <trkpt lat="48.07687" lon="3.26628">
        <ele>103.5</ele>
        <time>2024-03-30T11:38:15.000Z</time>
      </trkpt>
      <trkpt lat="48.07688" lon="3.26628">
        <ele>103.7</ele>
        <time>2024-03-30T11:38:16.000Z</time>
      </trkpt>
      <trkpt lat="48.07688" lon="3.26628">
        <ele>103.7</ele>
        <time>2024-03-30T11:38:17.000Z</time>
      </trkpt>
      <trkpt lat="48.07688" lon="3.26628">
        <ele>103.7</ele>
        <time>2024-03-30T11:38:18.000Z</time>
      </trkpt>
      <trkpt lat="48.07688" lon="3.26628">
        <ele>103.7</ele>
        <time>2024-03-30T11:38:19.000Z</time>
      </trkpt>
      <trkpt lat="48.07688" lon="3.26628">
        <ele>103.7</ele>
        <time>2024-03-30T11:38:20.000Z</time>
      </trkpt>
      <trkpt lat="48.07688" lon="3.26628">
        <ele>103.7</ele>
        <time>2024-03-30T11:38:21.000Z</time>
      </trkpt>
      <trkpt lat="48.07689" lon="3.26628">
        <ele>103.9</ele>
        <time>2024-03-30T11:38:22.000Z</time>
      </trkpt>
      <trkpt lat="48.07689" lon="3.26628">
        <ele>103.9</ele>
        <time>2024-03-30T11:38:23.000Z</time>
      </trkpt>
      <trkpt lat="48.07689" lon="3.26628">
        <ele>103.9</ele>
        <time>2024-03-30T11:38:24.000Z</time>
      </trkpt>
      <trkpt lat="48.0769" lon="3.26628">
        <ele>104.1</ele>
        <time>2024-03-30T11:38:25.000Z</time>
      </trkpt>
      <trkpt lat="48.0769" lon="3.26628">
        <ele>104.1</ele>
        <time>2024-03-30T11:38:26.000Z</time>
      </trkpt>
      <trkpt lat="48.07691" lon="3.26628">
        <ele>104.3</ele>
        <time>2024-03-30T11:38:27.000Z</time>
      </trkpt>
      <trkpt lat="48.07691" lon="3.26628">
        <ele>104.3</ele>
        <time>2024-03-30T11:38:28.000Z</time>
      </trkpt>
      <trkpt lat="48.07691" lon="3.26628">
        <ele>104.3</ele>
        <time>2024-03-30T11:38:29.000Z</time>
      </trkpt>
      <trkpt lat="48.07692" lon="3.26628">
        <ele>104.5</ele>
        <time>2024-03-30T11:38:30.000Z</time>
      </trkpt>
      <trkpt lat="48.07692" lon="3.26628">
        <ele>104.5</ele>
        <time>2024-03-30T11:38:31.000Z</time>
      </trkpt>
      <trkpt lat="48.07692" lon="3.26628">
        <ele>104.5</ele>
        <time>2024-03-30T11:38:32.000Z</time>
      </trkpt>
      <trkpt lat="48.07692" lon="3.26628">
        <ele>104.5</ele>
        <time>2024-03-30T11:38:33.000Z</time>
      </trkpt>
      <trkpt lat="48.07692" lon="3.26628">
        <ele>104.5</ele>
        <time>2024-03-30T11:38:34.000Z</time>
      </trkpt>
      <trkpt lat="48.07692" lon="3.26627">
        <ele>104.5</ele>
        <time>2024-03-30T11:38:35.000Z</time>
      </trkpt>
      <trkpt lat="48.07692" lon="3.26627">
        <ele>104.5</ele>
        <time>2024-03-30T11:38:37.000Z</time>
      </trkpt>
      <trkpt lat="48.07692" lon="3.26627">
        <ele>104.5</ele>
        <time>2024-03-30T11:38:38.000Z</time>
      </trkpt>
      <trkpt lat="48.07692" lon="3.26627">
        <ele>104.5</ele>
        <time>2024-03-30T11:38:39.000Z</time>
      </trkpt>
      <trkpt lat="48.07692" lon="3.26627">
        <ele>104.5</ele>
        <time>2024-03-30T11:38:45.000Z</time>
      </trkpt>
      <trkpt lat="48.07693" lon="3.26627">
        <ele>104.7</ele>
        <time>2024-03-30T11:38:47.000Z</time>
      </trkpt>
      <trkpt lat="48.07694" lon="3.26627">
        <ele>104.9</ele>
        <time>2024-03-30T11:38:49.000Z</time>
      </trkpt>
      <trkpt lat="48.07694" lon="3.26627">
        <ele>104.9</ele>
        <time>2024-03-30T11:38:53.000Z</time>
      </trkpt>
      <trkpt lat="48.07695" lon="3.26627">
        <ele>105.2</ele>
        <time>2024-03-30T11:38:54.000Z</time>
      </trkpt>
      <trkpt lat="48.07695" lon="3.26627">
        <ele>105.2</ele>
        <time>2024-03-30T11:38:55.000Z</time>
      </trkpt>
      <trkpt lat="48.07695" lon="3.26627">
        <ele>105.2</ele>
        <time>2024-03-30T11:38:56.000Z</time>
      </trkpt>
      <trkpt lat="48.07695" lon="3.26627">
        <ele>105.2</ele>
        <time>2024-03-30T11:38:57.000Z</time>
      </trkpt>
      <trkpt lat="48.07695" lon="3.26627">
        <ele>105.2</ele>
        <time>2024-03-30T11:38:59.000Z</time>
      </trkpt>
      <trkpt lat="48.07695" lon="3.26627">
        <ele>105.2</ele>
        <time>2024-03-30T11:39:06.000Z</time>
      </trkpt>
      <trkpt lat="48.07696" lon="3.26627">
        <ele>105.6</ele>
        <time>2024-03-30T11:39:07.000Z</time>
      </trkpt>
      <trkpt lat="48.07697" lon="3.26626">
        <ele>106</ele>
        <time>2024-03-30T11:39:08.000Z</time>
      </trkpt>
      <trkpt lat="48.07699" lon="3.26626">
        <ele>106.7</ele>
        <time>2024-03-30T11:39:09.000Z</time>
      </trkpt>
      <trkpt lat="48.077" lon="3.26625">
        <ele>107.1</ele>
        <time>2024-03-30T11:39:11.000Z</time>
      </trkpt>
      <trkpt lat="48.07701" lon="3.26625">
        <ele>107.5</ele>
        <time>2024-03-30T11:39:12.000Z</time>
      </trkpt>
      <trkpt lat="48.07701" lon="3.26625">
        <ele>107.5</ele>
        <time>2024-03-30T11:39:13.000Z</time>
      </trkpt>
      <trkpt lat="48.07702" lon="3.26625">
        <ele>107.9</ele>
        <time>2024-03-30T11:39:14.000Z</time>
      </trkpt>
      <trkpt lat="48.07702" lon="3.26625">
        <ele>107.9</ele>
        <time>2024-03-30T11:39:15.000Z</time>
      </trkpt>
      <trkpt lat="48.07705" lon="3.26624">
        <ele>109</ele>
        <time>2024-03-30T11:39:16.000Z</time>
      </trkpt>
      <trkpt lat="48.07706" lon="3.26623">
        <ele>109.3</ele>
        <time>2024-03-30T11:39:17.000Z</time>
      </trkpt>
      <trkpt lat="48.07706" lon="3.26623">
        <ele>109.3</ele>
        <time>2024-03-30T11:39:18.000Z</time>
      </trkpt>
      <trkpt lat="48.07706" lon="3.26623">
        <ele>109.3</ele>
        <time>2024-03-30T11:39:19.000Z</time>
      </trkpt>
      <trkpt lat="48.07707" lon="3.26623">
        <ele>109.7</ele>
        <time>2024-03-30T11:39:20.000Z</time>
      </trkpt>
      <trkpt lat="48.07707" lon="3.26622">
        <ele>109.7</ele>
        <time>2024-03-30T11:39:21.000Z</time>
      </trkpt>
      <trkpt lat="48.07707" lon="3.26622">
        <ele>109.7</ele>
        <time>2024-03-30T11:39:22.000Z</time>
      </trkpt>
      <trkpt lat="48.07708" lon="3.26622">
        <ele>110.1</ele>
        <time>2024-03-30T11:39:23.000Z</time>
      </trkpt>
      <trkpt lat="48.0771" lon="3.26622">
        <ele>110.8</ele>
        <time>2024-03-30T11:39:24.000Z</time>
      </trkpt>
      <trkpt lat="48.07711" lon="3.26621">
        <ele>111.2</ele>
        <time>2024-03-30T11:39:25.000Z</time>
      </trkpt>
      <trkpt lat="48.07713" lon="3.2662">
        <ele>111.9</ele>
        <time>2024-03-30T11:39:26.000Z</time>
      </trkpt>
      <trkpt lat="48.07714" lon="3.2662">
        <ele>112.3</ele>
        <time>2024-03-30T11:39:27.000Z</time>
      </trkpt>
      <trkpt lat="48.07714" lon="3.2662">
        <ele>112.3</ele>
        <time>2024-03-30T11:39:28.000Z</time>
      </trkpt>
      <trkpt lat="48.07715" lon="3.2662">
        <ele>112.6</ele>
        <time>2024-03-30T11:39:29.000Z</time>
      </trkpt>
      <trkpt lat="48.07715" lon="3.2662">
        <ele>112.6</ele>
        <time>2024-03-30T11:39:33.000Z</time>
      </trkpt>
      <trkpt lat="48.07717" lon="3.26619">
        <ele>113.4</ele>
        <time>2024-03-30T11:39:40.000Z</time>
      </trkpt>
      <trkpt lat="48.07717" lon="3.26619">
        <ele>113.4</ele>
        <time>2024-03-30T11:39:41.000Z</time>
      </trkpt>
      <trkpt lat="48.07718" lon="3.26619">
        <ele>113.7</ele>
        <time>2024-03-30T11:39:42.000Z</time>
      </trkpt>
      <trkpt lat="48.07719" lon="3.26618">
        <ele>114.1</ele>
        <time>2024-03-30T11:39:43.000Z</time>
      </trkpt>
      <trkpt lat="48.07719" lon="3.26618">
        <ele>114.1</ele>
        <time>2024-03-30T11:39:44.000Z</time>
      </trkpt>
      <trkpt lat="48.0772" lon="3.26618">
        <ele>114.4</ele>
        <time>2024-03-30T11:39:45.000Z</time>
      </trkpt>
      <trkpt lat="48.0772" lon="3.26618">
        <ele>114.4</ele>
        <time>2024-03-30T11:39:46.000Z</time>
      </trkpt>
      <trkpt lat="48.0772" lon="3.26618">
        <ele>114.4</ele>
        <time>2024-03-30T11:39:47.000Z</time>
      </trkpt>
      <trkpt lat="48.07721" lon="3.26617">
        <ele>114.8</ele>
        <time>2024-03-30T11:39:48.000Z</time>
      </trkpt>
      <trkpt lat="48.07722" lon="3.26617">
        <ele>115.1</ele>
        <time>2024-03-30T11:39:49.000Z</time>
      </trkpt>
      <trkpt lat="48.07723" lon="3.26617">
        <ele>115.5</ele>
        <time>2024-03-30T11:39:50.000Z</time>
      </trkpt>
      <trkpt lat="48.07723" lon="3.26616">
        <ele>115.5</ele>
        <time>2024-03-30T11:39:51.000Z</time>
      </trkpt>
      <trkpt lat="48.07724" lon="3.26616">
        <ele>115.8</ele>
        <time>2024-03-30T11:39:52.000Z</time>
      </trkpt>
      <trkpt lat="48.07725" lon="3.26616">
        <ele>116.2</ele>
        <time>2024-03-30T11:39:53.000Z</time>
      </trkpt>
      <trkpt lat="48.07726" lon="3.26615">
        <ele>116.5</ele>
        <time>2024-03-30T11:39:54.000Z</time>
      </trkpt>
      <trkpt lat="48.07726" lon="3.26615">
        <ele>116.5</ele>
        <time>2024-03-30T11:39:55.000Z</time>
      </trkpt>
      <trkpt lat="48.07726" lon="3.26615">
        <ele>116.5</ele>
        <time>2024-03-30T11:39:56.000Z</time>
      </trkpt>
      <trkpt lat="48.07726" lon="3.26615">
        <ele>116.5</ele>
        <time>2024-03-30T11:39:57.000Z</time>
      </trkpt>
      <trkpt lat="48.07727" lon="3.26615">
        <ele>116.8</ele>
        <time>2024-03-30T11:39:58.000Z</time>
      </trkpt>
      <trkpt lat="48.07727" lon="3.26615">
        <ele>116.8</ele>
        <time>2024-03-30T11:39:59.000Z</time>
      </trkpt>
      <trkpt lat="48.07728" lon="3.26614">
        <ele>117.2</ele>
        <time>2024-03-30T11:40:00.000Z</time>
      </trkpt>
      <trkpt lat="48.07729" lon="3.26613">
        <ele>117.5</ele>
        <time>2024-03-30T11:40:01.000Z</time>
      </trkpt>
      <trkpt lat="48.07729" lon="3.26613">
        <ele>117.5</ele>
        <time>2024-03-30T11:40:02.000Z</time>
      </trkpt>
      <trkpt lat="48.0773" lon="3.26612">
        <ele>117.8</ele>
        <time>2024-03-30T11:40:03.000Z</time>
      </trkpt>
      <trkpt lat="48.0773" lon="3.26613">
        <ele>117.8</ele>
        <time>2024-03-30T11:40:04.000Z</time>
      </trkpt>
      <trkpt lat="48.0773" lon="3.26612">
        <ele>117.8</ele>
        <time>2024-03-30T11:40:05.000Z</time>
      </trkpt>
      <trkpt lat="48.0773" lon="3.26612">
        <ele>117.8</ele>
        <time>2024-03-30T11:40:06.000Z</time>
      </trkpt>
      <trkpt lat="48.07733" lon="3.2661">
        <ele>118.9</ele>
        <time>2024-03-30T11:40:10.000Z</time>
      </trkpt>
      <trkpt lat="48.07734" lon="3.2661">
        <ele>119.2</ele>
        <time>2024-03-30T11:40:11.000Z</time>
      </trkpt>
      <trkpt lat="48.07734" lon="3.2661">
        <ele>119.2</ele>
        <time>2024-03-30T11:40:13.000Z</time>
      </trkpt>
      <trkpt lat="48.07735" lon="3.2661">
        <ele>119.6</ele>
        <time>2024-03-30T11:40:14.000Z</time>
      </trkpt>
      <trkpt lat="48.07735" lon="3.26609">
        <ele>119.6</ele>
        <time>2024-03-30T11:40:15.000Z</time>
      </trkpt>
      <trkpt lat="48.07735" lon="3.26609">
        <ele>119.6</ele>
        <time>2024-03-30T11:40:16.000Z</time>
      </trkpt>
      <trkpt lat="48.07735" lon="3.26609">
        <ele>119.6</ele>
        <time>2024-03-30T11:40:17.000Z</time>
      </trkpt>
      <trkpt lat="48.07736" lon="3.26609">
        <ele>119.9</ele>
        <time>2024-03-30T11:40:18.000Z</time>
      </trkpt>
      <trkpt lat="48.07736" lon="3.26609">
        <ele>119.9</ele>
        <time>2024-03-30T11:40:19.000Z</time>
      </trkpt>
      <trkpt lat="48.07736" lon="3.26609">
        <ele>119.9</ele>
        <time>2024-03-30T11:40:20.000Z</time>
      </trkpt>
      <trkpt lat="48.07736" lon="3.26609">
        <ele>119.9</ele>
        <time>2024-03-30T11:40:21.000Z</time>
      </trkpt>
      <trkpt lat="48.07737" lon="3.26609">
        <ele>120.3</ele>
        <time>2024-03-30T11:40:24.000Z</time>
      </trkpt>
      <trkpt lat="48.07737" lon="3.26609">
        <ele>120.3</ele>
        <time>2024-03-30T11:40:25.000Z</time>
      </trkpt>
      <trkpt lat="48.07737" lon="3.26609">
        <ele>120.3</ele>
        <time>2024-03-30T11:40:26.000Z</time>
      </trkpt>
      <trkpt lat="48.07738" lon="3.26608">
        <ele>120.6</ele>
        <time>2024-03-30T11:40:27.000Z</time>
      </trkpt>
      <trkpt lat="48.07738" lon="3.26608">
        <ele>120.6</ele>
        <time>2024-03-30T11:40:28.000Z</time>
      </trkpt>
      <trkpt lat="48.07738" lon="3.26608">
        <ele>120.6</ele>
        <time>2024-03-30T11:40:32.000Z</time>
      </trkpt>
      <trkpt lat="48.07738" lon="3.26608">
        <ele>120.6</ele>
        <time>2024-03-30T11:40:36.000Z</time>
      </trkpt>
      <trkpt lat="48.07739" lon="3.26608">
        <ele>121</ele>
        <time>2024-03-30T11:40:39.000Z</time>
      </trkpt>
      <trkpt lat="48.07739" lon="3.26608">
        <ele>121</ele>
        <time>2024-03-30T11:40:40.000Z</time>
      </trkpt>
      <trkpt lat="48.07739" lon="3.26608">
        <ele>121</ele>
        <time>2024-03-30T11:40:41.000Z</time>
      </trkpt>
      <trkpt lat="48.0774" lon="3.26607">
        <ele>121.3</ele>
        <time>2024-03-30T11:40:43.000Z</time>
      </trkpt>
      <trkpt lat="48.0774" lon="3.26607">
        <ele>121.3</ele>
        <time>2024-03-30T11:40:44.000Z</time>
      </trkpt>
      <trkpt lat="48.0774" lon="3.26607">
        <ele>121.3</ele>
        <time>2024-03-30T11:40:45.000Z</time>
      </trkpt>
      <trkpt lat="48.0774" lon="3.26607">
        <ele>121.3</ele>
        <time>2024-03-30T11:40:46.000Z</time>
      </trkpt>
      <trkpt lat="48.0774" lon="3.26607">
        <ele>121.3</ele>
        <time>2024-03-30T11:40:47.000Z</time>
      </trkpt>
      <trkpt lat="48.07741" lon="3.26607">
        <ele>121.7</ele>
        <time>2024-03-30T11:40:48.000Z</time>
      </trkpt>
      <trkpt lat="48.07741" lon="3.26606">
        <ele>121.6</ele>
        <time>2024-03-30T11:40:49.000Z</time>
      </trkpt>
      <trkpt lat="48.07742" lon="3.26606">
        <ele>122</ele>
        <time>2024-03-30T11:40:50.000Z</time>
      </trkpt>
      <trkpt lat="48.07742" lon="3.26606">
        <ele>122</ele>
        <time>2024-03-30T11:40:51.000Z</time>
      </trkpt>
      <trkpt lat="48.07742" lon="3.26606">
        <ele>122</ele>
        <time>2024-03-30T11:40:52.000Z</time>
      </trkpt>
      <trkpt lat="48.07742" lon="3.26606">
        <ele>122</ele>
        <time>2024-03-30T11:40:53.000Z</time>
      </trkpt>
      <trkpt lat="48.07744" lon="3.26606">
        <ele>122.7</ele>
        <time>2024-03-30T11:40:55.000Z</time>
      </trkpt>
      <trkpt lat="48.07745" lon="3.26606">
        <ele>123</ele>
        <time>2024-03-30T11:40:56.000Z</time>
      </trkpt>
      <trkpt lat="48.07747" lon="3.26605">
        <ele>123.7</ele>
        <time>2024-03-30T11:40:59.000Z</time>
      </trkpt>
      <trkpt lat="48.07748" lon="3.26605">
        <ele>124.1</ele>
        <time>2024-03-30T11:41:01.000Z</time>
      </trkpt>
      <trkpt lat="48.07748" lon="3.26605">
        <ele>124.1</ele>
        <time>2024-03-30T11:41:04.000Z</time>
      </trkpt>
      <trkpt lat="48.07749" lon="3.26605">
        <ele>124.4</ele>
        <time>2024-03-30T11:41:10.000Z</time>
      </trkpt>
      <trkpt lat="48.07751" lon="3.26605">
        <ele>125.1</ele>
        <time>2024-03-30T11:41:15.000Z</time>
      </trkpt>
      <trkpt lat="48.07752" lon="3.26605">
        <ele>125.4</ele>
        <time>2024-03-30T11:41:18.000Z</time>
      </trkpt>
      <trkpt lat="48.07752" lon="3.26605">
        <ele>125.4</ele>
        <time>2024-03-30T11:41:19.000Z</time>
      </trkpt>
      <trkpt lat="48.07752" lon="3.26605">
        <ele>125.4</ele>
        <time>2024-03-30T11:41:20.000Z</time>
      </trkpt>
      <trkpt lat="48.07752" lon="3.26605">
        <ele>125.4</ele>
        <time>2024-03-30T11:41:22.000Z</time>
      </trkpt>
      <trkpt lat="48.07753" lon="3.26605">
        <ele>125.7</ele>
        <time>2024-03-30T11:41:24.000Z</time>
      </trkpt>
      <trkpt lat="48.07754" lon="3.26605">
        <ele>126</ele>
        <time>2024-03-30T11:41:25.000Z</time>
      </trkpt>
      <trkpt lat="48.07755" lon="3.26605">
        <ele>126.4</ele>
        <time>2024-03-30T11:41:26.000Z</time>
      </trkpt>
      <trkpt lat="48.07756" lon="3.26605">
        <ele>126.7</ele>
        <time>2024-03-30T11:41:27.000Z</time>
      </trkpt>
      <trkpt lat="48.07756" lon="3.26604">
        <ele>126.6</ele>
        <time>2024-03-30T11:41:28.000Z</time>
      </trkpt>
      <trkpt lat="48.07756" lon="3.26604">
        <ele>126.6</ele>
        <time>2024-03-30T11:41:29.000Z</time>
      </trkpt>
      <trkpt lat="48.07756" lon="3.26604">
        <ele>126.6</ele>
        <time>2024-03-30T11:41:30.000Z</time>
      </trkpt>
      <trkpt lat="48.07756" lon="3.26604">
        <ele>126.6</ele>
        <time>2024-03-30T11:41:31.000Z</time>
      </trkpt>
      <trkpt lat="48.07756" lon="3.26604">
        <ele>126.6</ele>
        <time>2024-03-30T11:41:32.000Z</time>
      </trkpt>
      <trkpt lat="48.07756" lon="3.26604">
        <ele>126.6</ele>
        <time>2024-03-30T11:41:39.000Z</time>
      </trkpt>
      <trkpt lat="48.07758" lon="3.26605">
        <ele>127.3</ele>
        <time>2024-03-30T11:41:42.000Z</time>
      </trkpt>
      <trkpt lat="48.07758" lon="3.26605">
        <ele>127.3</ele>
        <time>2024-03-30T11:41:43.000Z</time>
      </trkpt>
      <trkpt lat="48.07758" lon="3.26605">
        <ele>127.3</ele>
        <time>2024-03-30T11:41:44.000Z</time>
      </trkpt>
      <trkpt lat="48.0776" lon="3.26606">
        <ele>128</ele>
        <time>2024-03-30T11:41:47.000Z</time>
      </trkpt>
      <trkpt lat="48.07762" lon="3.26607">
        <ele>128.7</ele>
        <time>2024-03-30T11:41:48.000Z</time>
      </trkpt>
      <trkpt lat="48.07762" lon="3.26607">
        <ele>128.7</ele>
        <time>2024-03-30T11:41:49.000Z</time>
      </trkpt>
      <trkpt lat="48.07762" lon="3.26607">
        <ele>128.7</ele>
        <time>2024-03-30T11:41:50.000Z</time>
      </trkpt>
      <trkpt lat="48.07762" lon="3.26607">
        <ele>128.7</ele>
        <time>2024-03-30T11:41:51.000Z</time>
      </trkpt>
      <trkpt lat="48.07762" lon="3.26607">
        <ele>128.7</ele>
        <time>2024-03-30T11:41:52.000Z</time>
      </trkpt>
      <trkpt lat="48.07762" lon="3.26607">
        <ele>128.7</ele>
        <time>2024-03-30T11:41:53.000Z</time>
      </trkpt>
      <trkpt lat="48.07763" lon="3.26607">
        <ele>129</ele>
        <time>2024-03-30T11:41:54.000Z</time>
      </trkpt>
      <trkpt lat="48.07763" lon="3.26607">
        <ele>129</ele>
        <time>2024-03-30T11:41:55.000Z</time>
      </trkpt>
      <trkpt lat="48.07764" lon="3.26607">
        <ele>129.3</ele>
        <time>2024-03-30T11:41:56.000Z</time>
      </trkpt>
      <trkpt lat="48.07764" lon="3.26607">
        <ele>129.3</ele>
        <time>2024-03-30T11:41:57.000Z</time>
      </trkpt>
      <trkpt lat="48.07764" lon="3.26607">
        <ele>129.3</ele>
        <time>2024-03-30T11:41:58.000Z</time>
      </trkpt>
      <trkpt lat="48.07764" lon="3.26607">
        <ele>129.3</ele>
        <time>2024-03-30T11:41:59.000Z</time>
      </trkpt>
      <trkpt lat="48.07766" lon="3.26608">
        <ele>130</ele>
        <time>2024-03-30T11:42:03.000Z</time>
      </trkpt>
      <trkpt lat="48.07766" lon="3.26608">
        <ele>130</ele>
        <time>2024-03-30T11:42:04.000Z</time>
      </trkpt>
      <trkpt lat="48.07769" lon="3.26609">
        <ele>131</ele>
        <time>2024-03-30T11:42:13.000Z</time>
      </trkpt>
      <trkpt lat="48.0777" lon="3.26609">
        <ele>131.3</ele>
        <time>2024-03-30T11:42:15.000Z</time>
      </trkpt>
      <trkpt lat="48.07771" lon="3.26609">
        <ele>131.7</ele>
        <time>2024-03-30T11:42:17.000Z</time>
      </trkpt>
      <trkpt lat="48.07774" lon="3.26609">
        <ele>132.6</ele>
        <time>2024-03-30T11:42:23.000Z</time>
      </trkpt>
      <trkpt lat="48.07774" lon="3.26609">
        <ele>132.6</ele>
        <time>2024-03-30T11:42:26.000Z</time>
      </trkpt>
      <trkpt lat="48.07775" lon="3.2661">
        <ele>133</ele>
        <time>2024-03-30T11:42:28.000Z</time>
      </trkpt>
      <trkpt lat="48.07775" lon="3.2661">
        <ele>133</ele>
        <time>2024-03-30T11:42:29.000Z</time>
      </trkpt>
      <trkpt lat="48.07775" lon="3.2661">
        <ele>133</ele>
        <time>2024-03-30T11:42:34.000Z</time>
      </trkpt>
      <trkpt lat="48.07775" lon="3.2661">
        <ele>133</ele>
        <time>2024-03-30T11:42:36.000Z</time>
      </trkpt>
      <trkpt lat="48.0778" lon="3.26612">
        <ele>134.6</ele>
        <time>2024-03-30T11:42:43.000Z</time>
      </trkpt>
      <trkpt lat="48.07781" lon="3.26613">
        <ele>134.9</ele>
        <time>2024-03-30T11:42:44.000Z</time>
      </trkpt>
      <trkpt lat="48.07782" lon="3.26614">
        <ele>135.2</ele>
        <time>2024-03-30T11:42:45.000Z</time>
      </trkpt>
      <trkpt lat="48.07782" lon="3.26615">
        <ele>135.2</ele>
        <time>2024-03-30T11:42:46.000Z</time>
      </trkpt>
      <trkpt lat="48.07783" lon="3.26616">
        <ele>135.5</ele>
        <time>2024-03-30T11:42:47.000Z</time>
      </trkpt>
      <trkpt lat="48.07783" lon="3.26616">
        <ele>135.5</ele>
        <time>2024-03-30T11:42:48.000Z</time>
      </trkpt>
      <trkpt lat="48.07784" lon="3.26617">
        <ele>135.8</ele>
        <time>2024-03-30T11:42:49.000Z</time>
      </trkpt>
      <trkpt lat="48.07784" lon="3.26619">
        <ele>135.9</ele>
        <time>2024-03-30T11:42:50.000Z</time>
      </trkpt>
      <trkpt lat="48.07786" lon="3.26621">
        <ele>136.5</ele>
        <time>2024-03-30T11:42:53.000Z</time>
      </trkpt>
      <trkpt lat="48.07788" lon="3.26624">
        <ele>137.1</ele>
        <time>2024-03-30T11:42:55.000Z</time>
      </trkpt>
      <trkpt lat="48.07788" lon="3.26625">
        <ele>137.1</ele>
        <time>2024-03-30T11:42:56.000Z</time>
      </trkpt>
      <trkpt lat="48.07789" lon="3.26626">
        <ele>137.4</ele>
        <time>2024-03-30T11:42:58.000Z</time>
      </trkpt>
      <trkpt lat="48.0779" lon="3.26627">
        <ele>137.8</ele>
        <time>2024-03-30T11:43:00.000Z</time>
      </trkpt>
      <trkpt lat="48.0779" lon="3.26629">
        <ele>137.8</ele>
        <time>2024-03-30T11:43:01.000Z</time>
      </trkpt>
      <trkpt lat="48.0779" lon="3.26629">
        <ele>137.8</ele>
        <time>2024-03-30T11:43:02.000Z</time>
      </trkpt>
      <trkpt lat="48.0779" lon="3.2663">
        <ele>137.8</ele>
        <time>2024-03-30T11:43:03.000Z</time>
      </trkpt>
      <trkpt lat="48.07791" lon="3.26631">
        <ele>138.1</ele>
        <time>2024-03-30T11:43:04.000Z</time>
      </trkpt>
      <trkpt lat="48.07791" lon="3.26632">
        <ele>138.2</ele>
        <time>2024-03-30T11:43:05.000Z</time>
      </trkpt>
      <trkpt lat="48.07791" lon="3.26632">
        <ele>138.2</ele>
        <time>2024-03-30T11:43:06.000Z</time>
      </trkpt>
      <trkpt lat="48.07791" lon="3.26632">
        <ele>138.2</ele>
        <time>2024-03-30T11:43:07.000Z</time>
      </trkpt>
      <trkpt lat="48.07792" lon="3.26633">
        <ele>138.5</ele>
        <time>2024-03-30T11:43:08.000Z</time>
      </trkpt>
      <trkpt lat="48.07793" lon="3.26633">
        <ele>138.8</ele>
        <time>2024-03-30T11:43:09.000Z</time>
      </trkpt>
      <trkpt lat="48.07793" lon="3.26634">
        <ele>138.8</ele>
        <time>2024-03-30T11:43:10.000Z</time>
      </trkpt>
      <trkpt lat="48.07793" lon="3.26635">
        <ele>138.9</ele>
        <time>2024-03-30T11:43:11.000Z</time>
      </trkpt>
      <trkpt lat="48.07794" lon="3.26636">
        <ele>139.2</ele>
        <time>2024-03-30T11:43:12.000Z</time>
      </trkpt>
      <trkpt lat="48.07794" lon="3.26637">
        <ele>139.2</ele>
        <time>2024-03-30T11:43:13.000Z</time>
      </trkpt>
      <trkpt lat="48.07795" lon="3.26637">
        <ele>139.5</ele>
        <time>2024-03-30T11:43:14.000Z</time>
      </trkpt>
      <trkpt lat="48.07795" lon="3.26638">
        <ele>139.6</ele>
        <time>2024-03-30T11:43:15.000Z</time>
      </trkpt>
      <trkpt lat="48.07795" lon="3.26639">
        <ele>139.6</ele>
        <time>2024-03-30T11:43:16.000Z</time>
      </trkpt>
      <trkpt lat="48.07795" lon="3.2664">
        <ele>139.6</ele>
        <time>2024-03-30T11:43:17.000Z</time>
      </trkpt>
      <trkpt lat="48.07795" lon="3.2664">
        <ele>139.6</ele>
        <time>2024-03-30T11:43:18.000Z</time>
      </trkpt>
      <trkpt lat="48.07796" lon="3.26641">
        <ele>140</ele>
        <time>2024-03-30T11:43:19.000Z</time>
      </trkpt>
      <trkpt lat="48.07796" lon="3.26642">
        <ele>140</ele>
        <time>2024-03-30T11:43:20.000Z</time>
      </trkpt>
      <trkpt lat="48.07797" lon="3.26642">
        <ele>140.3</ele>
        <time>2024-03-30T11:43:21.000Z</time>
      </trkpt>
      <trkpt lat="48.07797" lon="3.26643">
        <ele>140.4</ele>
        <time>2024-03-30T11:43:22.000Z</time>
      </trkpt>
      <trkpt lat="48.07797" lon="3.26644">
        <ele>140.4</ele>
        <time>2024-03-30T11:43:23.000Z</time>
      </trkpt>
      <trkpt lat="48.07798" lon="3.26644">
        <ele>140.7</ele>
        <time>2024-03-30T11:43:24.000Z</time>
      </trkpt>
      <trkpt lat="48.07798" lon="3.26644">
        <ele>140.7</ele>
        <time>2024-03-30T11:43:25.000Z</time>
      </trkpt>
      <trkpt lat="48.07798" lon="3.26644">
        <ele>140.7</ele>
        <time>2024-03-30T11:43:26.000Z</time>
      </trkpt>
      <trkpt lat="48.07798" lon="3.26644">
        <ele>140.7</ele>
        <time>2024-03-30T11:43:28.000Z</time>
      </trkpt>
      <trkpt lat="48.07799" lon="3.26644">
        <ele>141.1</ele>
        <time>2024-03-30T11:43:30.000Z</time>
      </trkpt>
      <trkpt lat="48.07799" lon="3.26645">
        <ele>141.1</ele>
        <time>2024-03-30T11:43:31.000Z</time>
      </trkpt>
      <trkpt lat="48.07799" lon="3.26645">
        <ele>141.1</ele>
        <time>2024-03-30T11:43:32.000Z</time>
      </trkpt>
      <trkpt lat="48.07799" lon="3.26645">
        <ele>141.1</ele>
        <time>2024-03-30T11:43:33.000Z</time>
      </trkpt>
      <trkpt lat="48.07799" lon="3.26645">
        <ele>141.1</ele>
        <time>2024-03-30T11:43:34.000Z</time>
      </trkpt>
      <trkpt lat="48.078" lon="3.26645">
        <ele>141.4</ele>
        <time>2024-03-30T11:43:35.000Z</time>
      </trkpt>
      <trkpt lat="48.078" lon="3.26645">
        <ele>141.4</ele>
        <time>2024-03-30T11:43:36.000Z</time>
      </trkpt>
      <trkpt lat="48.078" lon="3.26645">
        <ele>141.4</ele>
        <time>2024-03-30T11:43:37.000Z</time>
      </trkpt>
      <trkpt lat="48.078" lon="3.26645">
        <ele>141.4</ele>
        <time>2024-03-30T11:43:42.000Z</time>
      </trkpt>
      <trkpt lat="48.078" lon="3.26645">
        <ele>141.4</ele>
        <time>2024-03-30T11:43:43.000Z</time>
      </trkpt>
      <trkpt lat="48.07801" lon="3.26647">
        <ele>141.8</ele>
        <time>2024-03-30T11:43:49.000Z</time>
      </trkpt>
      <trkpt lat="48.07802" lon="3.26648">
        <ele>142.2</ele>
        <time>2024-03-30T11:43:50.000Z</time>
      </trkpt>
      <trkpt lat="48.07803" lon="3.26649">
        <ele>142.5</ele>
        <time>2024-03-30T11:43:51.000Z</time>
      </trkpt>
      <trkpt lat="48.07803" lon="3.26649">
        <ele>142.5</ele>
        <time>2024-03-30T11:43:52.000Z</time>
      </trkpt>
      <trkpt lat="48.07803" lon="3.26649">
        <ele>142.5</ele>
        <time>2024-03-30T11:43:53.000Z</time>
      </trkpt>
      <trkpt lat="48.07803" lon="3.26649">
        <ele>142.5</ele>
        <time>2024-03-30T11:43:54.000Z</time>
      </trkpt>
      <trkpt lat="48.07803" lon="3.26649">
        <ele>142.5</ele>
        <time>2024-03-30T11:43:55.000Z</time>
      </trkpt>
      <trkpt lat="48.07804" lon="3.2665">
        <ele>142.9</ele>
        <time>2024-03-30T11:43:56.000Z</time>
      </trkpt>
      <trkpt lat="48.07804" lon="3.2665">
        <ele>142.9</ele>
        <time>2024-03-30T11:43:57.000Z</time>
      </trkpt>
      <trkpt lat="48.07805" lon="3.26651">
        <ele>143.3</ele>
        <time>2024-03-30T11:43:58.000Z</time>
      </trkpt>
      <trkpt lat="48.07805" lon="3.26651">
        <ele>143.3</ele>
        <time>2024-03-30T11:43:59.000Z</time>
      </trkpt>
      <trkpt lat="48.07805" lon="3.26652">
        <ele>143.3</ele>
        <time>2024-03-30T11:44:00.000Z</time>
      </trkpt>
      <trkpt lat="48.07807" lon="3.26653">
        <ele>143.8</ele>
        <time>2024-03-30T11:44:02.000Z</time>
      </trkpt>
      <trkpt lat="48.07807" lon="3.26653">
        <ele>143.8</ele>
        <time>2024-03-30T11:44:03.000Z</time>
      </trkpt>
      <trkpt lat="48.07811" lon="3.26656">
        <ele>144.7</ele>
        <time>2024-03-30T11:44:06.000Z</time>
      </trkpt>
      <trkpt lat="48.07811" lon="3.26658">
        <ele>144.7</ele>
        <time>2024-03-30T11:44:08.000Z</time>
      </trkpt>
      <trkpt lat="48.07811" lon="3.26658">
        <ele>144.7</ele>
        <time>2024-03-30T11:44:09.000Z</time>
      </trkpt>
      <trkpt lat="48.07811" lon="3.26658">
        <ele>144.7</ele>
        <time>2024-03-30T11:44:10.000Z</time>
      </trkpt>
      <trkpt lat="48.07814" lon="3.26662">
        <ele>145.4</ele>
        <time>2024-03-30T11:44:16.000Z</time>
      </trkpt>
      <trkpt lat="48.07815" lon="3.26663">
        <ele>145.6</ele>
        <time>2024-03-30T11:44:17.000Z</time>
      </trkpt>
      <trkpt lat="48.07816" lon="3.26664">
        <ele>145.8</ele>
        <time>2024-03-30T11:44:18.000Z</time>
      </trkpt>
      <trkpt lat="48.07816" lon="3.26664">
        <ele>145.8</ele>
        <time>2024-03-30T11:44:19.000Z</time>
      </trkpt>
      <trkpt lat="48.07816" lon="3.26664">
        <ele>145.8</ele>
        <time>2024-03-30T11:44:20.000Z</time>
      </trkpt>
      <trkpt lat="48.07817" lon="3.26665">
        <ele>146</ele>
        <time>2024-03-30T11:44:21.000Z</time>
      </trkpt>
      <trkpt lat="48.07818" lon="3.26666">
        <ele>146.2</ele>
        <time>2024-03-30T11:44:22.000Z</time>
      </trkpt>
      <trkpt lat="48.07818" lon="3.26667">
        <ele>146.2</ele>
        <time>2024-03-30T11:44:23.000Z</time>
      </trkpt>
      <trkpt lat="48.07819" lon="3.26668">
        <ele>146.4</ele>
        <time>2024-03-30T11:44:24.000Z</time>
      </trkpt>
      <trkpt lat="48.0782" lon="3.26669">
        <ele>146.6</ele>
        <time>2024-03-30T11:44:25.000Z</time>
      </trkpt>
      <trkpt lat="48.07821" lon="3.26671">
        <ele>146.9</ele>
        <time>2024-03-30T11:44:26.000Z</time>
      </trkpt>
      <trkpt lat="48.07822" lon="3.26671">
        <ele>147.1</ele>
        <time>2024-03-30T11:44:27.000Z</time>
      </trkpt>
      <trkpt lat="48.07822" lon="3.26672">
        <ele>147.1</ele>
        <time>2024-03-30T11:44:28.000Z</time>
      </trkpt>
      <trkpt lat="48.07822" lon="3.26672">
        <ele>147.1</ele>
        <time>2024-03-30T11:44:29.000Z</time>
      </trkpt>
      <trkpt lat="48.07822" lon="3.26672">
        <ele>147.1</ele>
        <time>2024-03-30T11:44:30.000Z</time>
      </trkpt>
      <trkpt lat="48.07823" lon="3.26672">
        <ele>147.3</ele>
        <time>2024-03-30T11:44:31.000Z</time>
      </trkpt>
      <trkpt lat="48.07823" lon="3.26672">
        <ele>147.3</ele>
        <time>2024-03-30T11:44:32.000Z</time>
      </trkpt>
      <trkpt lat="48.07824" lon="3.26673">
        <ele>147.5</ele>
        <time>2024-03-30T11:44:33.000Z</time>
      </trkpt>
      <trkpt lat="48.07824" lon="3.26673">
        <ele>147.5</ele>
        <time>2024-03-30T11:44:34.000Z</time>
      </trkpt>
      <trkpt lat="48.07824" lon="3.26673">
        <ele>147.5</ele>
        <time>2024-03-30T11:44:36.000Z</time>
      </trkpt>
      <trkpt lat="48.07824" lon="3.26673">
        <ele>147.5</ele>
        <time>2024-03-30T11:44:40.000Z</time>
      </trkpt>
      <trkpt lat="48.07824" lon="3.26673">
        <ele>147.5</ele>
        <time>2024-03-30T11:44:46.000Z</time>
      </trkpt>
      <trkpt lat="48.07826" lon="3.26674">
        <ele>147.9</ele>
        <time>2024-03-30T11:44:47.000Z</time>
      </trkpt>
      <trkpt lat="48.07826" lon="3.26674">
        <ele>147.9</ele>
        <time>2024-03-30T11:44:48.000Z</time>
      </trkpt>
      <trkpt lat="48.07826" lon="3.26675">
        <ele>147.9</ele>
        <time>2024-03-30T11:44:49.000Z</time>
      </trkpt>
      <trkpt lat="48.07827" lon="3.26675">
        <ele>148.1</ele>
        <time>2024-03-30T11:44:50.000Z</time>
      </trkpt>
      <trkpt lat="48.07827" lon="3.26675">
        <ele>148.1</ele>
        <time>2024-03-30T11:44:53.000Z</time>
      </trkpt>
      <trkpt lat="48.07828" lon="3.26675">
        <ele>148.3</ele>
        <time>2024-03-30T11:44:54.000Z</time>
      </trkpt>
      <trkpt lat="48.07829" lon="3.26677">
        <ele>148.5</ele>
        <time>2024-03-30T11:44:56.000Z</time>
      </trkpt>
      <trkpt lat="48.0783" lon="3.26678">
        <ele>148.8</ele>
        <time>2024-03-30T11:44:57.000Z</time>
      </trkpt>
      <trkpt lat="48.0783" lon="3.26678">
        <ele>148.8</ele>
        <time>2024-03-30T11:44:58.000Z</time>
      </trkpt>
      <trkpt lat="48.0783" lon="3.26678">
        <ele>148.8</ele>
        <time>2024-03-30T11:45:01.000Z</time>
      </trkpt>
      <trkpt lat="48.07833" lon="3.26681">
        <ele>149.4</ele>
        <time>2024-03-30T11:45:07.000Z</time>
      </trkpt>
      <trkpt lat="48.07833" lon="3.26681">
        <ele>149.4</ele>
        <time>2024-03-30T11:45:09.000Z</time>
      </trkpt>
      <trkpt lat="48.07835" lon="3.26682">
        <ele>149.9</ele>
        <time>2024-03-30T11:45:12.000Z</time>
      </trkpt>
      <trkpt lat="48.07836" lon="3.26682">
        <ele>150.2</ele>
        <time>2024-03-30T11:45:13.000Z</time>
      </trkpt>
      <trkpt lat="48.07836" lon="3.26682">
        <ele>150.2</ele>
        <time>2024-03-30T11:45:14.000Z</time>
      </trkpt>
      <trkpt lat="48.07836" lon="3.26682">
        <ele>150.2</ele>
        <time>2024-03-30T11:45:15.000Z</time>
      </trkpt>
      <trkpt lat="48.07837" lon="3.26682">
        <ele>150.4</ele>
        <time>2024-03-30T11:45:16.000Z</time>
      </trkpt>
      <trkpt lat="48.07838" lon="3.26682">
        <ele>150.6</ele>
        <time>2024-03-30T11:45:17.000Z</time>
      </trkpt>
      <trkpt lat="48.07839" lon="3.26682">
        <ele>150.9</ele>
        <time>2024-03-30T11:45:18.000Z</time>
      </trkpt>
      <trkpt lat="48.07846" lon="3.26684">
        <ele>152.5</ele>
        <time>2024-03-30T11:45:27.000Z</time>
      </trkpt>
      <trkpt lat="48.07846" lon="3.26684">
        <ele>152.5</ele>
        <time>2024-03-30T11:45:28.000Z</time>
      </trkpt>
      <trkpt lat="48.07849" lon="3.26686">
        <ele>153.3</ele>
        <time>2024-03-30T11:45:35.000Z</time>
      </trkpt>
      <trkpt lat="48.07849" lon="3.26686">
        <ele>153.3</ele>
        <time>2024-03-30T11:45:36.000Z</time>
      </trkpt>
      <trkpt lat="48.0785" lon="3.26687">
        <ele>153.5</ele>
        <time>2024-03-30T11:45:38.000Z</time>
      </trkpt>
      <trkpt lat="48.0785" lon="3.26688">
        <ele>153.5</ele>
        <time>2024-03-30T11:45:39.000Z</time>
      </trkpt>
      <trkpt lat="48.07851" lon="3.26688">
        <ele>153.7</ele>
        <time>2024-03-30T11:45:43.000Z</time>
      </trkpt>
      <trkpt lat="48.07851" lon="3.26687">
        <ele>153.7</ele>
        <time>2024-03-30T11:45:49.000Z</time>
      </trkpt>
      <trkpt lat="48.07852" lon="3.26687">
        <ele>153.9</ele>
        <time>2024-03-30T11:45:51.000Z</time>
      </trkpt>
      <trkpt lat="48.07853" lon="3.26685">
        <ele>154.1</ele>
        <time>2024-03-30T11:45:54.000Z</time>
      </trkpt>
      <trkpt lat="48.07853" lon="3.26685">
        <ele>154.1</ele>
        <time>2024-03-30T11:45:55.000Z</time>
      </trkpt>
      <trkpt lat="48.07853" lon="3.26685">
        <ele>154.1</ele>
        <time>2024-03-30T11:45:57.000Z</time>
      </trkpt>
      <trkpt lat="48.07853" lon="3.26685">
        <ele>154.1</ele>
        <time>2024-03-30T11:46:03.000Z</time>
      </trkpt>
      <trkpt lat="48.07853" lon="3.26685">
        <ele>154.1</ele>
        <time>2024-03-30T11:46:08.000Z</time>
      </trkpt>
      <trkpt lat="48.07853" lon="3.26685">
        <ele>154.1</ele>
        <time>2024-03-30T11:46:09.000Z</time>
      </trkpt>
      <trkpt lat="48.07853" lon="3.26685">
        <ele>154.1</ele>
        <time>2024-03-30T11:46:20.000Z</time>
      </trkpt>
      <trkpt lat="48.07853" lon="3.26685">
        <ele>154.1</ele>
        <time>2024-03-30T11:46:23.000Z</time>
      </trkpt>
      <trkpt lat="48.07853" lon="3.26685">
        <ele>154.1</ele>
        <time>2024-03-30T11:46:35.000Z</time>
      </trkpt>
      <trkpt lat="48.07853" lon="3.26685">
        <ele>154.1</ele>
        <time>2024-03-30T11:46:56.000Z</time>
      </trkpt>
      <trkpt lat="48.07854" lon="3.26683">
        <ele>154.4</ele>
        <time>2024-03-30T11:47:13.000Z</time>
      </trkpt>
      <trkpt lat="48.07856" lon="3.26677">
        <ele>154.8</ele>
        <time>2024-03-30T11:47:19.000Z</time>
      </trkpt>
      <trkpt lat="48.07861" lon="3.26659">
        <ele>155.7</ele>
        <time>2024-03-30T11:47:26.000Z</time>
      </trkpt>
      <trkpt lat="48.07862" lon="3.26656">
        <ele>155.8</ele>
        <time>2024-03-30T11:47:27.000Z</time>
      </trkpt>
      <trkpt lat="48.07868" lon="3.26631">
        <ele>156.7</ele>
        <time>2024-03-30T11:47:34.000Z</time>
      </trkpt>
      <trkpt lat="48.07873" lon="3.26609">
        <ele>157.6</ele>
        <time>2024-03-30T11:47:41.000Z</time>
      </trkpt>
      <trkpt lat="48.07874" lon="3.26606">
        <ele>157.9</ele>
        <time>2024-03-30T11:47:42.000Z</time>
      </trkpt>
      <trkpt lat="48.07875" lon="3.26602">
        <ele>158.2</ele>
        <time>2024-03-30T11:47:43.000Z</time>
      </trkpt>
      <trkpt lat="48.07875" lon="3.26599">
        <ele>158.2</ele>
        <time>2024-03-30T11:47:44.000Z</time>
      </trkpt>
      <trkpt lat="48.07876" lon="3.26595">
        <ele>158.5</ele>
        <time>2024-03-30T11:47:45.000Z</time>
      </trkpt>
      <trkpt lat="48.07878" lon="3.26584">
        <ele>159</ele>
        <time>2024-03-30T11:47:48.000Z</time>
      </trkpt>
      <trkpt lat="48.07879" lon="3.26577">
        <ele>159.3</ele>
        <time>2024-03-30T11:47:50.000Z</time>
      </trkpt>
      <trkpt lat="48.0788" lon="3.26573">
        <ele>159.5</ele>
        <time>2024-03-30T11:47:51.000Z</time>
      </trkpt>
      <trkpt lat="48.0788" lon="3.2657">
        <ele>159.6</ele>
        <time>2024-03-30T11:47:52.000Z</time>
      </trkpt>
      <trkpt lat="48.07881" lon="3.26567">
        <ele>159.8</ele>
        <time>2024-03-30T11:47:53.000Z</time>
      </trkpt>
      <trkpt lat="48.07881" lon="3.26564">
        <ele>159.9</ele>
        <time>2024-03-30T11:47:54.000Z</time>
      </trkpt>
      <trkpt lat="48.07881" lon="3.26562">
        <ele>159.9</ele>
        <time>2024-03-30T11:47:55.000Z</time>
      </trkpt>
      <trkpt lat="48.07882" lon="3.26559">
        <ele>160.2</ele>
        <time>2024-03-30T11:47:56.000Z</time>
      </trkpt>
      <trkpt lat="48.07883" lon="3.26557">
        <ele>160.5</ele>
        <time>2024-03-30T11:47:57.000Z</time>
      </trkpt>
      <trkpt lat="48.07884" lon="3.26553">
        <ele>160.8</ele>
        <time>2024-03-30T11:47:58.000Z</time>
      </trkpt>
      <trkpt lat="48.07885" lon="3.2655">
        <ele>161</ele>
        <time>2024-03-30T11:47:59.000Z</time>
      </trkpt>
      <trkpt lat="48.07885" lon="3.26547">
        <ele>161</ele>
        <time>2024-03-30T11:48:00.000Z</time>
      </trkpt>
      <trkpt lat="48.07886" lon="3.26544">
        <ele>161.2</ele>
        <time>2024-03-30T11:48:01.000Z</time>
      </trkpt>
      <trkpt lat="48.07887" lon="3.26541">
        <ele>161.5</ele>
        <time>2024-03-30T11:48:02.000Z</time>
      </trkpt>
      <trkpt lat="48.07887" lon="3.26537">
        <ele>161.5</ele>
        <time>2024-03-30T11:48:03.000Z</time>
      </trkpt>
      <trkpt lat="48.07888" lon="3.26534">
        <ele>161.8</ele>
        <time>2024-03-30T11:48:04.000Z</time>
      </trkpt>
      <trkpt lat="48.07889" lon="3.2653">
        <ele>162</ele>
        <time>2024-03-30T11:48:05.000Z</time>
      </trkpt>
      <trkpt lat="48.0789" lon="3.26526">
        <ele>162.1</ele>
        <time>2024-03-30T11:48:06.000Z</time>
      </trkpt>
      <trkpt lat="48.07891" lon="3.26522">
        <ele>162.2</ele>
        <time>2024-03-30T11:48:07.000Z</time>
      </trkpt>
      <trkpt lat="48.07893" lon="3.26518">
        <ele>162.4</ele>
        <time>2024-03-30T11:48:08.000Z</time>
      </trkpt>
      <trkpt lat="48.07894" lon="3.26515">
        <ele>162.6</ele>
        <time>2024-03-30T11:48:09.000Z</time>
      </trkpt>
      <trkpt lat="48.07895" lon="3.26511">
        <ele>162.7</ele>
        <time>2024-03-30T11:48:10.000Z</time>
      </trkpt>
      <trkpt lat="48.07896" lon="3.26508">
        <ele>162.8</ele>
        <time>2024-03-30T11:48:11.000Z</time>
      </trkpt>
      <trkpt lat="48.07897" lon="3.26505">
        <ele>162.9</ele>
        <time>2024-03-30T11:48:12.000Z</time>
      </trkpt>
      <trkpt lat="48.07898" lon="3.26502">
        <ele>163</ele>
        <time>2024-03-30T11:48:13.000Z</time>
      </trkpt>
      <trkpt lat="48.079" lon="3.26499">
        <ele>163.2</ele>
        <time>2024-03-30T11:48:14.000Z</time>
      </trkpt>
      <trkpt lat="48.07901" lon="3.26495">
        <ele>163.2</ele>
        <time>2024-03-30T11:48:15.000Z</time>
      </trkpt>
      <trkpt lat="48.07903" lon="3.26492">
        <ele>163.4</ele>
        <time>2024-03-30T11:48:16.000Z</time>
      </trkpt>
      <trkpt lat="48.07904" lon="3.26489">
        <ele>163.4</ele>
        <time>2024-03-30T11:48:17.000Z</time>
      </trkpt>
      <trkpt lat="48.07905" lon="3.26486">
        <ele>163.4</ele>
        <time>2024-03-30T11:48:18.000Z</time>
      </trkpt>
      <trkpt lat="48.07906" lon="3.26482">
        <ele>163.4</ele>
        <time>2024-03-30T11:48:19.000Z</time>
      </trkpt>
      <trkpt lat="48.07907" lon="3.26479">
        <ele>163.5</ele>
        <time>2024-03-30T11:48:20.000Z</time>
      </trkpt>
      <trkpt lat="48.07909" lon="3.26475">
        <ele>163.5</ele>
        <time>2024-03-30T11:48:21.000Z</time>
      </trkpt>
      <trkpt lat="48.0791" lon="3.26472">
        <ele>163.5</ele>
        <time>2024-03-30T11:48:22.000Z</time>
      </trkpt>
      <trkpt lat="48.07911" lon="3.26469">
        <ele>163.6</ele>
        <time>2024-03-30T11:48:23.000Z</time>
      </trkpt>
      <trkpt lat="48.07912" lon="3.26467">
        <ele>163.7</ele>
        <time>2024-03-30T11:48:24.000Z</time>
      </trkpt>
      <trkpt lat="48.07914" lon="3.26464">
        <ele>163.8</ele>
        <time>2024-03-30T11:48:25.000Z</time>
      </trkpt>
      <trkpt lat="48.07915" lon="3.2646">
        <ele>163.9</ele>
        <time>2024-03-30T11:48:26.000Z</time>
      </trkpt>
      <trkpt lat="48.07916" lon="3.26457">
        <ele>164</ele>
        <time>2024-03-30T11:48:27.000Z</time>
      </trkpt>
      <trkpt lat="48.07918" lon="3.26454">
        <ele>164</ele>
        <time>2024-03-30T11:48:28.000Z</time>
      </trkpt>
      <trkpt lat="48.07919" lon="3.26451">
        <ele>164.1</ele>
        <time>2024-03-30T11:48:29.000Z</time>
      </trkpt>
      <trkpt lat="48.0792" lon="3.26448">
        <ele>164.1</ele>
        <time>2024-03-30T11:48:30.000Z</time>
      </trkpt>
      <trkpt lat="48.07921" lon="3.26446">
        <ele>164.2</ele>
        <time>2024-03-30T11:48:31.000Z</time>
      </trkpt>
      <trkpt lat="48.07923" lon="3.26443">
        <ele>164.3</ele>
        <time>2024-03-30T11:48:32.000Z</time>
      </trkpt>
      <trkpt lat="48.07924" lon="3.26441">
        <ele>164.4</ele>
        <time>2024-03-30T11:48:33.000Z</time>
      </trkpt>
      <trkpt lat="48.07925" lon="3.26439">
        <ele>164.4</ele>
        <time>2024-03-30T11:48:34.000Z</time>
      </trkpt>
      <trkpt lat="48.07926" lon="3.26436">
        <ele>164.5</ele>
        <time>2024-03-30T11:48:35.000Z</time>
      </trkpt>
      <trkpt lat="48.07927" lon="3.26434">
        <ele>164.6</ele>
        <time>2024-03-30T11:48:36.000Z</time>
      </trkpt>
      <trkpt lat="48.07929" lon="3.26432">
        <ele>164.7</ele>
        <time>2024-03-30T11:48:37.000Z</time>
      </trkpt>
      <trkpt lat="48.0793" lon="3.26432">
        <ele>164.7</ele>
        <time>2024-03-30T11:48:38.000Z</time>
      </trkpt>
      <trkpt lat="48.07932" lon="3.26431">
        <ele>164.8</ele>
        <time>2024-03-30T11:48:39.000Z</time>
      </trkpt>
      <trkpt lat="48.07933" lon="3.26431">
        <ele>164.8</ele>
        <time>2024-03-30T11:48:40.000Z</time>
      </trkpt>
      <trkpt lat="48.07934" lon="3.26431">
        <ele>164.8</ele>
        <time>2024-03-30T11:48:41.000Z</time>
      </trkpt>
      <trkpt lat="48.07935" lon="3.26433">
        <ele>164.8</ele>
        <time>2024-03-30T11:48:42.000Z</time>
      </trkpt>
      <trkpt lat="48.07935" lon="3.26435">
        <ele>164.8</ele>
        <time>2024-03-30T11:48:43.000Z</time>
      </trkpt>
      <trkpt lat="48.07935" lon="3.26437">
        <ele>164.8</ele>
        <time>2024-03-30T11:48:44.000Z</time>
      </trkpt>
      <trkpt lat="48.07935" lon="3.2644">
        <ele>164.7</ele>
        <time>2024-03-30T11:48:45.000Z</time>
      </trkpt>
      <trkpt lat="48.07936" lon="3.26443">
        <ele>164.7</ele>
        <time>2024-03-30T11:48:46.000Z</time>
      </trkpt>
      <trkpt lat="48.07936" lon="3.26447">
        <ele>164.7</ele>
        <time>2024-03-30T11:48:47.000Z</time>
      </trkpt>
      <trkpt lat="48.07937" lon="3.2645">
        <ele>164.7</ele>
        <time>2024-03-30T11:48:48.000Z</time>
      </trkpt>
      <trkpt lat="48.07937" lon="3.26454">
        <ele>164.7</ele>
        <time>2024-03-30T11:48:49.000Z</time>
      </trkpt>
      <trkpt lat="48.07937" lon="3.26459">
        <ele>164.7</ele>
        <time>2024-03-30T11:48:50.000Z</time>
      </trkpt>
      <trkpt lat="48.07937" lon="3.26482">
        <ele>165.1</ele>
        <time>2024-03-30T11:48:55.000Z</time>
      </trkpt>
      <trkpt lat="48.07936" lon="3.26492">
        <ele>165.4</ele>
        <time>2024-03-30T11:48:57.000Z</time>
      </trkpt>
      <trkpt lat="48.07935" lon="3.26533">
        <ele>165.8</ele>
        <time>2024-03-30T11:49:05.000Z</time>
      </trkpt>
      <trkpt lat="48.07934" lon="3.26537">
        <ele>165.8</ele>
        <time>2024-03-30T11:49:06.000Z</time>
      </trkpt>
      <trkpt lat="48.07933" lon="3.26539">
        <ele>165.8</ele>
        <time>2024-03-30T11:49:07.000Z</time>
      </trkpt>
      <trkpt lat="48.07933" lon="3.2654">
        <ele>165.8</ele>
        <time>2024-03-30T11:49:09.000Z</time>
      </trkpt>
      <trkpt lat="48.07933" lon="3.2654">
        <ele>165.8</ele>
        <time>2024-03-30T11:49:13.000Z</time>
      </trkpt>
      <trkpt lat="48.07933" lon="3.26541">
        <ele>165.9</ele>
        <time>2024-03-30T11:49:19.000Z</time>
      </trkpt>
      <trkpt lat="48.07933" lon="3.26549">
        <ele>166</ele>
        <time>2024-03-30T11:49:22.000Z</time>
      </trkpt>
      <trkpt lat="48.0793" lon="3.26569">
        <ele>165.7</ele>
        <time>2024-03-30T11:49:27.000Z</time>
      </trkpt>
      <trkpt lat="48.07927" lon="3.26601">
        <ele>165.6</ele>
        <time>2024-03-30T11:49:32.000Z</time>
      </trkpt>
      <trkpt lat="48.07927" lon="3.26608">
        <ele>165.7</ele>
        <time>2024-03-30T11:49:33.000Z</time>
      </trkpt>
      <trkpt lat="48.07927" lon="3.26614">
        <ele>165.8</ele>
        <time>2024-03-30T11:49:34.000Z</time>
      </trkpt>
      <trkpt lat="48.07926" lon="3.26649">
        <ele>165.9</ele>
        <time>2024-03-30T11:49:39.000Z</time>
      </trkpt>
      <trkpt lat="48.07926" lon="3.26698">
        <ele>166.4</ele>
        <time>2024-03-30T11:49:46.000Z</time>
      </trkpt>
      <trkpt lat="48.07926" lon="3.26717">
        <ele>166.9</ele>
        <time>2024-03-30T11:49:49.000Z</time>
      </trkpt>
      <trkpt lat="48.07926" lon="3.26723">
        <ele>167</ele>
        <time>2024-03-30T11:49:50.000Z</time>
      </trkpt>
      <trkpt lat="48.07926" lon="3.26729">
        <ele>167</ele>
        <time>2024-03-30T11:49:51.000Z</time>
      </trkpt>
      <trkpt lat="48.07926" lon="3.26734">
        <ele>167</ele>
        <time>2024-03-30T11:49:52.000Z</time>
      </trkpt>
      <trkpt lat="48.07926" lon="3.2674">
        <ele>167</ele>
        <time>2024-03-30T11:49:53.000Z</time>
      </trkpt>
      <trkpt lat="48.07926" lon="3.26746">
        <ele>167</ele>
        <time>2024-03-30T11:49:54.000Z</time>
      </trkpt>
      <trkpt lat="48.07927" lon="3.26754">
        <ele>166.9</ele>
        <time>2024-03-30T11:49:55.000Z</time>
      </trkpt>
      <trkpt lat="48.07927" lon="3.26759">
        <ele>166.9</ele>
        <time>2024-03-30T11:49:56.000Z</time>
      </trkpt>
      <trkpt lat="48.0793" lon="3.26781">
        <ele>166.3</ele>
        <time>2024-03-30T11:49:59.000Z</time>
      </trkpt>
      <trkpt lat="48.07934" lon="3.26804">
        <ele>165.3</ele>
        <time>2024-03-30T11:50:02.000Z</time>
      </trkpt>
      <trkpt lat="48.07935" lon="3.26812">
        <ele>165.2</ele>
        <time>2024-03-30T11:50:03.000Z</time>
      </trkpt>
      <trkpt lat="48.07942" lon="3.26855">
        <ele>164.8</ele>
        <time>2024-03-30T11:50:08.000Z</time>
      </trkpt>
      <trkpt lat="48.07957" lon="3.26934">
        <ele>162.5</ele>
        <time>2024-03-30T11:50:16.000Z</time>
      </trkpt>
      <trkpt lat="48.07967" lon="3.27009">
        <ele>162.7</ele>
        <time>2024-03-30T11:50:23.000Z</time>
      </trkpt>
      <trkpt lat="48.07968" lon="3.27018">
        <ele>162.8</ele>
        <time>2024-03-30T11:50:24.000Z</time>
      </trkpt>
      <trkpt lat="48.07969" lon="3.27027">
        <ele>162.9</ele>
        <time>2024-03-30T11:50:25.000Z</time>
      </trkpt>
      <trkpt lat="48.0797" lon="3.27036">
        <ele>163.2</ele>
        <time>2024-03-30T11:50:26.000Z</time>
      </trkpt>
      <trkpt lat="48.0797" lon="3.27045">
        <ele>163.5</ele>
        <time>2024-03-30T11:50:27.000Z</time>
      </trkpt>
      <trkpt lat="48.0797" lon="3.27053">
        <ele>163.8</ele>
        <time>2024-03-30T11:50:28.000Z</time>
      </trkpt>
      <trkpt lat="48.0797" lon="3.27061">
        <ele>163.9</ele>
        <time>2024-03-30T11:50:29.000Z</time>
      </trkpt>
      <trkpt lat="48.0797" lon="3.27069">
        <ele>163.9</ele>
        <time>2024-03-30T11:50:30.000Z</time>
      </trkpt>
      <trkpt lat="48.0797" lon="3.27085">
        <ele>163.9</ele>
        <time>2024-03-30T11:50:32.000Z</time>
      </trkpt>
      <trkpt lat="48.0797" lon="3.27093">
        <ele>163.6</ele>
        <time>2024-03-30T11:50:33.000Z</time>
      </trkpt>
      <trkpt lat="48.0797" lon="3.271">
        <ele>163.4</ele>
        <time>2024-03-30T11:50:34.000Z</time>
      </trkpt>
      <trkpt lat="48.07969" lon="3.27107">
        <ele>163.1</ele>
        <time>2024-03-30T11:50:35.000Z</time>
      </trkpt>
      <trkpt lat="48.07969" lon="3.27114">
        <ele>163</ele>
        <time>2024-03-30T11:50:36.000Z</time>
      </trkpt>
      <trkpt lat="48.07969" lon="3.2712">
        <ele>163</ele>
        <time>2024-03-30T11:50:37.000Z</time>
      </trkpt>
      <trkpt lat="48.07966" lon="3.27139">
        <ele>163.2</ele>
        <time>2024-03-30T11:50:40.000Z</time>
      </trkpt>
      <trkpt lat="48.07965" lon="3.27145">
        <ele>163.4</ele>
        <time>2024-03-30T11:50:41.000Z</time>
      </trkpt>
      <trkpt lat="48.07963" lon="3.27152">
        <ele>163.6</ele>
        <time>2024-03-30T11:50:42.000Z</time>
      </trkpt>
      <trkpt lat="48.07962" lon="3.27157">
        <ele>163.8</ele>
        <time>2024-03-30T11:50:43.000Z</time>
      </trkpt>
      <trkpt lat="48.07959" lon="3.2717">
        <ele>163.9</ele>
        <time>2024-03-30T11:50:45.000Z</time>
      </trkpt>
      <trkpt lat="48.07958" lon="3.27175">
        <ele>163.9</ele>
        <time>2024-03-30T11:50:46.000Z</time>
      </trkpt>
      <trkpt lat="48.07957" lon="3.27182">
        <ele>163.8</ele>
        <time>2024-03-30T11:50:47.000Z</time>
      </trkpt>
      <trkpt lat="48.07954" lon="3.27193">
        <ele>163.7</ele>
        <time>2024-03-30T11:50:49.000Z</time>
      </trkpt>
      <trkpt lat="48.07953" lon="3.27198">
        <ele>163.7</ele>
        <time>2024-03-30T11:50:50.000Z</time>
      </trkpt>
      <trkpt lat="48.07947" lon="3.27223">
        <ele>163.9</ele>
        <time>2024-03-30T11:50:54.000Z</time>
      </trkpt>
      <trkpt lat="48.07939" lon="3.27265">
        <ele>162.8</ele>
        <time>2024-03-30T11:51:01.000Z</time>
      </trkpt>
      <trkpt lat="48.07938" lon="3.27319">
        <ele>160.4</ele>
        <time>2024-03-30T11:51:08.000Z</time>
      </trkpt>
      <trkpt lat="48.07941" lon="3.27353">
        <ele>159.7</ele>
        <time>2024-03-30T11:51:11.000Z</time>
      </trkpt>
      <trkpt lat="48.07942" lon="3.27375">
        <ele>159.6</ele>
        <time>2024-03-30T11:51:13.000Z</time>
      </trkpt>
      <trkpt lat="48.07943" lon="3.27385">
        <ele>159.7</ele>
        <time>2024-03-30T11:51:14.000Z</time>
      </trkpt>
      <trkpt lat="48.07943" lon="3.27394">
        <ele>159.7</ele>
        <time>2024-03-30T11:51:15.000Z</time>
      </trkpt>
      <trkpt lat="48.07944" lon="3.27401">
        <ele>159.9</ele>
        <time>2024-03-30T11:51:16.000Z</time>
      </trkpt>
      <trkpt lat="48.07944" lon="3.2741">
        <ele>159.9</ele>
        <time>2024-03-30T11:51:17.000Z</time>
      </trkpt>
      <trkpt lat="48.07943" lon="3.27417">
        <ele>159.7</ele>
        <time>2024-03-30T11:51:18.000Z</time>
      </trkpt>
      <trkpt lat="48.07942" lon="3.27421">
        <ele>159.2</ele>
        <time>2024-03-30T11:51:19.000Z</time>
      </trkpt>
      <trkpt lat="48.07939" lon="3.27426">
        <ele>158.3</ele>
        <time>2024-03-30T11:51:20.000Z</time>
      </trkpt>
      <trkpt lat="48.07938" lon="3.27429">
        <ele>158</ele>
        <time>2024-03-30T11:51:21.000Z</time>
      </trkpt>
      <trkpt lat="48.07937" lon="3.27431">
        <ele>157.6</ele>
        <time>2024-03-30T11:51:22.000Z</time>
      </trkpt>
      <trkpt lat="48.07937" lon="3.27434">
        <ele>157.4</ele>
        <time>2024-03-30T11:51:23.000Z</time>
      </trkpt>
      <trkpt lat="48.07938" lon="3.27437">
        <ele>157.4</ele>
        <time>2024-03-30T11:51:24.000Z</time>
      </trkpt>
      <trkpt lat="48.0794" lon="3.27439">
        <ele>157.6</ele>
        <time>2024-03-30T11:51:25.000Z</time>
      </trkpt>
      <trkpt lat="48.07945" lon="3.27441">
        <ele>158.3</ele>
        <time>2024-03-30T11:51:27.000Z</time>
      </trkpt>
      <trkpt lat="48.07946" lon="3.27444">
        <ele>158.1</ele>
        <time>2024-03-30T11:51:28.000Z</time>
      </trkpt>
      <trkpt lat="48.07949" lon="3.27452">
        <ele>157.4</ele>
        <time>2024-03-30T11:51:30.000Z</time>
      </trkpt>
      <trkpt lat="48.0795" lon="3.27456">
        <ele>157</ele>
        <time>2024-03-30T11:51:31.000Z</time>
      </trkpt>
      <trkpt lat="48.07952" lon="3.27461">
        <ele>156.6</ele>
        <time>2024-03-30T11:51:32.000Z</time>
      </trkpt>
      <trkpt lat="48.07957" lon="3.27469">
        <ele>156.2</ele>
        <time>2024-03-30T11:51:34.000Z</time>
      </trkpt>
      <trkpt lat="48.07959" lon="3.27471">
        <ele>156.2</ele>
        <time>2024-03-30T11:51:35.000Z</time>
      </trkpt>
      <trkpt lat="48.07962" lon="3.27476">
        <ele>155.9</ele>
        <time>2024-03-30T11:51:36.000Z</time>
      </trkpt>
      <trkpt lat="48.07971" lon="3.27491">
        <ele>154.9</ele>
        <time>2024-03-30T11:51:39.000Z</time>
      </trkpt>
      <trkpt lat="48.07977" lon="3.275">
        <ele>154.3</ele>
        <time>2024-03-30T11:51:41.000Z</time>
      </trkpt>
      <trkpt lat="48.07989" lon="3.27516">
        <ele>154.6</ele>
        <time>2024-03-30T11:51:44.000Z</time>
      </trkpt>
      <trkpt lat="48.07994" lon="3.27527">
        <ele>154.6</ele>
        <time>2024-03-30T11:51:46.000Z</time>
      </trkpt>
      <trkpt lat="48.07997" lon="3.27534">
        <ele>154.5</ele>
        <time>2024-03-30T11:51:47.000Z</time>
      </trkpt>
      <trkpt lat="48.07999" lon="3.27541">
        <ele>154.4</ele>
        <time>2024-03-30T11:51:48.000Z</time>
      </trkpt>
      <trkpt lat="48.08005" lon="3.27566">
        <ele>153.4</ele>
        <time>2024-03-30T11:51:51.000Z</time>
      </trkpt>
      <trkpt lat="48.08009" lon="3.27581">
        <ele>152.8</ele>
        <time>2024-03-30T11:51:53.000Z</time>
      </trkpt>
      <trkpt lat="48.08017" lon="3.27596">
        <ele>151.5</ele>
        <time>2024-03-30T11:51:55.000Z</time>
      </trkpt>
      <trkpt lat="48.08021" lon="3.27603">
        <ele>150.8</ele>
        <time>2024-03-30T11:51:56.000Z</time>
      </trkpt>
      <trkpt lat="48.08031" lon="3.27616">
        <ele>149.7</ele>
        <time>2024-03-30T11:51:58.000Z</time>
      </trkpt>
      <trkpt lat="48.08035" lon="3.27623">
        <ele>149.3</ele>
        <time>2024-03-30T11:51:59.000Z</time>
      </trkpt>
      <trkpt lat="48.08044" lon="3.27636">
        <ele>148.5</ele>
        <time>2024-03-30T11:52:01.000Z</time>
      </trkpt>
      <trkpt lat="48.08049" lon="3.27648">
        <ele>147.9</ele>
        <time>2024-03-30T11:52:03.000Z</time>
      </trkpt>
      <trkpt lat="48.08051" lon="3.27655">
        <ele>147.6</ele>
        <time>2024-03-30T11:52:04.000Z</time>
      </trkpt>
      <trkpt lat="48.08053" lon="3.27661">
        <ele>147.3</ele>
        <time>2024-03-30T11:52:05.000Z</time>
      </trkpt>
      <trkpt lat="48.08055" lon="3.27667">
        <ele>147</ele>
        <time>2024-03-30T11:52:06.000Z</time>
      </trkpt>
      <trkpt lat="48.08056" lon="3.27674">
        <ele>147</ele>
        <time>2024-03-30T11:52:07.000Z</time>
      </trkpt>
      <trkpt lat="48.08058" lon="3.27681">
        <ele>146.8</ele>
        <time>2024-03-30T11:52:08.000Z</time>
      </trkpt>
      <trkpt lat="48.08059" lon="3.27699">
        <ele>146.6</ele>
        <time>2024-03-30T11:52:10.000Z</time>
      </trkpt>
      <trkpt lat="48.0806" lon="3.27708">
        <ele>146.2</ele>
        <time>2024-03-30T11:52:11.000Z</time>
      </trkpt>
      <trkpt lat="48.08059" lon="3.27737">
        <ele>145.2</ele>
        <time>2024-03-30T11:52:14.000Z</time>
      </trkpt>
      <trkpt lat="48.08059" lon="3.27746">
        <ele>144.9</ele>
        <time>2024-03-30T11:52:15.000Z</time>
      </trkpt>
      <trkpt lat="48.08059" lon="3.27755">
        <ele>144.6</ele>
        <time>2024-03-30T11:52:16.000Z</time>
      </trkpt>
      <trkpt lat="48.08059" lon="3.27764">
        <ele>144.3</ele>
        <time>2024-03-30T11:52:17.000Z</time>
      </trkpt>
      <trkpt lat="48.0806" lon="3.27772">
        <ele>144</ele>
        <time>2024-03-30T11:52:18.000Z</time>
      </trkpt>
      <trkpt lat="48.08062" lon="3.2778">
        <ele>143.6</ele>
        <time>2024-03-30T11:52:19.000Z</time>
      </trkpt>
      <trkpt lat="48.08063" lon="3.27789">
        <ele>143.1</ele>
        <time>2024-03-30T11:52:20.000Z</time>
      </trkpt>
      <trkpt lat="48.08069" lon="3.27812">
        <ele>142.1</ele>
        <time>2024-03-30T11:52:23.000Z</time>
      </trkpt>
      <trkpt lat="48.08074" lon="3.27839">
        <ele>141.1</ele>
        <time>2024-03-30T11:52:26.000Z</time>
      </trkpt>
      <trkpt lat="48.08076" lon="3.27845">
        <ele>140.9</ele>
        <time>2024-03-30T11:52:27.000Z</time>
      </trkpt>
      <trkpt lat="48.08079" lon="3.27854">
        <ele>140.8</ele>
        <time>2024-03-30T11:52:28.000Z</time>
      </trkpt>
      <trkpt lat="48.08081" lon="3.27861">
        <ele>140.8</ele>
        <time>2024-03-30T11:52:29.000Z</time>
      </trkpt>
      <trkpt lat="48.08084" lon="3.27868">
        <ele>140.7</ele>
        <time>2024-03-30T11:52:30.000Z</time>
      </trkpt>
      <trkpt lat="48.08088" lon="3.27874">
        <ele>140.2</ele>
        <time>2024-03-30T11:52:31.000Z</time>
      </trkpt>
      <trkpt lat="48.08091" lon="3.27879">
        <ele>139.8</ele>
        <time>2024-03-30T11:52:32.000Z</time>
      </trkpt>
      <trkpt lat="48.08095" lon="3.27885">
        <ele>139.3</ele>
        <time>2024-03-30T11:52:33.000Z</time>
      </trkpt>
      <trkpt lat="48.08099" lon="3.2789">
        <ele>138.8</ele>
        <time>2024-03-30T11:52:34.000Z</time>
      </trkpt>
      <trkpt lat="48.08111" lon="3.27908">
        <ele>136.6</ele>
        <time>2024-03-30T11:52:37.000Z</time>
      </trkpt>
      <trkpt lat="48.08114" lon="3.27914">
        <ele>136.1</ele>
        <time>2024-03-30T11:52:38.000Z</time>
      </trkpt>
      <trkpt lat="48.08118" lon="3.27921">
        <ele>135.5</ele>
        <time>2024-03-30T11:52:39.000Z</time>
      </trkpt>
      <trkpt lat="48.08121" lon="3.27927">
        <ele>135</ele>
        <time>2024-03-30T11:52:40.000Z</time>
      </trkpt>
      <trkpt lat="48.08124" lon="3.27935">
        <ele>134.5</ele>
        <time>2024-03-30T11:52:41.000Z</time>
      </trkpt>
      <trkpt lat="48.08127" lon="3.27943">
        <ele>134.1</ele>
        <time>2024-03-30T11:52:42.000Z</time>
      </trkpt>
      <trkpt lat="48.08134" lon="3.2797">
        <ele>132</ele>
        <time>2024-03-30T11:52:45.000Z</time>
      </trkpt>
      <trkpt lat="48.08135" lon="3.2799">
        <ele>131.1</ele>
        <time>2024-03-30T11:52:47.000Z</time>
      </trkpt>
      <trkpt lat="48.08134" lon="3.27996">
        <ele>130.8</ele>
        <time>2024-03-30T11:52:48.000Z</time>
      </trkpt>
      <trkpt lat="48.08133" lon="3.28">
        <ele>130.6</ele>
        <time>2024-03-30T11:52:49.000Z</time>
      </trkpt>
      <trkpt lat="48.08131" lon="3.28005">
        <ele>130.2</ele>
        <time>2024-03-30T11:52:50.000Z</time>
      </trkpt>
      <trkpt lat="48.0813" lon="3.28011">
        <ele>129.8</ele>
        <time>2024-03-30T11:52:51.000Z</time>
      </trkpt>
      <trkpt lat="48.08128" lon="3.28018">
        <ele>129.3</ele>
        <time>2024-03-30T11:52:52.000Z</time>
      </trkpt>
      <trkpt lat="48.08124" lon="3.28033">
        <ele>127.8</ele>
        <time>2024-03-30T11:52:54.000Z</time>
      </trkpt>
      <trkpt lat="48.08123" lon="3.28042">
        <ele>126.7</ele>
        <time>2024-03-30T11:52:55.000Z</time>
      </trkpt>
      <trkpt lat="48.08122" lon="3.28053">
        <ele>125.5</ele>
        <time>2024-03-30T11:52:56.000Z</time>
      </trkpt>
      <trkpt lat="48.08122" lon="3.28076">
        <ele>123.3</ele>
        <time>2024-03-30T11:52:58.000Z</time>
      </trkpt>
      <trkpt lat="48.08122" lon="3.28088">
        <ele>122.1</ele>
        <time>2024-03-30T11:52:59.000Z</time>
      </trkpt>
      <trkpt lat="48.08122" lon="3.28099">
        <ele>120.9</ele>
        <time>2024-03-30T11:53:00.000Z</time>
      </trkpt>
      <trkpt lat="48.08122" lon="3.28108">
        <ele>119.9</ele>
        <time>2024-03-30T11:53:01.000Z</time>
      </trkpt>
      <trkpt lat="48.08122" lon="3.28117">
        <ele>119</ele>
        <time>2024-03-30T11:53:02.000Z</time>
      </trkpt>
      <trkpt lat="48.08122" lon="3.28125">
        <ele>118.3</ele>
        <time>2024-03-30T11:53:03.000Z</time>
      </trkpt>
      <trkpt lat="48.08122" lon="3.28135">
        <ele>117.3</ele>
        <time>2024-03-30T11:53:04.000Z</time>
      </trkpt>
      <trkpt lat="48.08123" lon="3.28144">
        <ele>116.6</ele>
        <time>2024-03-30T11:53:05.000Z</time>
      </trkpt>
      <trkpt lat="48.08123" lon="3.28153">
        <ele>115.6</ele>
        <time>2024-03-30T11:53:06.000Z</time>
      </trkpt>
      <trkpt lat="48.08125" lon="3.28162">
        <ele>115</ele>
        <time>2024-03-30T11:53:07.000Z</time>
      </trkpt>
      <trkpt lat="48.08126" lon="3.28171">
        <ele>114.1</ele>
        <time>2024-03-30T11:53:08.000Z</time>
      </trkpt>
      <trkpt lat="48.08128" lon="3.28179">
        <ele>113.4</ele>
        <time>2024-03-30T11:53:09.000Z</time>
      </trkpt>
      <trkpt lat="48.08129" lon="3.28186">
        <ele>112.7</ele>
        <time>2024-03-30T11:53:10.000Z</time>
      </trkpt>
      <trkpt lat="48.08129" lon="3.28191">
        <ele>112</ele>
        <time>2024-03-30T11:53:11.000Z</time>
      </trkpt>
      <trkpt lat="48.08128" lon="3.28195">
        <ele>111.4</ele>
        <time>2024-03-30T11:53:12.000Z</time>
      </trkpt>
      <trkpt lat="48.08126" lon="3.28201">
        <ele>110.4</ele>
        <time>2024-03-30T11:53:13.000Z</time>
      </trkpt>
      <trkpt lat="48.08123" lon="3.28207">
        <ele>109.4</ele>
        <time>2024-03-30T11:53:14.000Z</time>
      </trkpt>
      <trkpt lat="48.0812" lon="3.28213">
        <ele>108.3</ele>
        <time>2024-03-30T11:53:15.000Z</time>
      </trkpt>
      <trkpt lat="48.08116" lon="3.2822">
        <ele>106.9</ele>
        <time>2024-03-30T11:53:16.000Z</time>
      </trkpt>
      <trkpt lat="48.08112" lon="3.28229">
        <ele>105.4</ele>
        <time>2024-03-30T11:53:17.000Z</time>
      </trkpt>
      <trkpt lat="48.08102" lon="3.28249">
        <ele>101.8</ele>
        <time>2024-03-30T11:53:19.000Z</time>
      </trkpt>
      <trkpt lat="48.08096" lon="3.2826">
        <ele>99.7</ele>
        <time>2024-03-30T11:53:20.000Z</time>
      </trkpt>
      <trkpt lat="48.08091" lon="3.2827">
        <ele>97.9</ele>
        <time>2024-03-30T11:53:21.000Z</time>
      </trkpt>
      <trkpt lat="48.08087" lon="3.28279">
        <ele>96.4</ele>
        <time>2024-03-30T11:53:22.000Z</time>
      </trkpt>
      <trkpt lat="48.08083" lon="3.28286">
        <ele>95.4</ele>
        <time>2024-03-30T11:53:23.000Z</time>
      </trkpt>
      <trkpt lat="48.08079" lon="3.28293">
        <ele>94.5</ele>
        <time>2024-03-30T11:53:24.000Z</time>
      </trkpt>
      <trkpt lat="48.08076" lon="3.28299">
        <ele>93.9</ele>
        <time>2024-03-30T11:53:25.000Z</time>
      </trkpt>
      <trkpt lat="48.08073" lon="3.28304">
        <ele>93.3</ele>
        <time>2024-03-30T11:53:26.000Z</time>
      </trkpt>
      <trkpt lat="48.08071" lon="3.28308">
        <ele>93</ele>
        <time>2024-03-30T11:53:27.000Z</time>
      </trkpt>
      <trkpt lat="48.0807" lon="3.28312">
        <ele>92.7</ele>
        <time>2024-03-30T11:53:28.000Z</time>
      </trkpt>
      <trkpt lat="48.08069" lon="3.28315">
        <ele>92.5</ele>
        <time>2024-03-30T11:53:29.000Z</time>
      </trkpt>
      <trkpt lat="48.08069" lon="3.28319">
        <ele>92.2</ele>
        <time>2024-03-30T11:53:30.000Z</time>
      </trkpt>
      <trkpt lat="48.08069" lon="3.28322">
        <ele>92.1</ele>
        <time>2024-03-30T11:53:31.000Z</time>
      </trkpt>
      <trkpt lat="48.0807" lon="3.28327">
        <ele>91.9</ele>
        <time>2024-03-30T11:53:32.000Z</time>
      </trkpt>
      <trkpt lat="48.0807" lon="3.28331">
        <ele>91.7</ele>
        <time>2024-03-30T11:53:33.000Z</time>
      </trkpt>
      <trkpt lat="48.08071" lon="3.28334">
        <ele>91.6</ele>
        <time>2024-03-30T11:53:34.000Z</time>
      </trkpt>
      <trkpt lat="48.08072" lon="3.28338">
        <ele>91.4</ele>
        <time>2024-03-30T11:53:35.000Z</time>
      </trkpt>
      <trkpt lat="48.08072" lon="3.28341">
        <ele>91.2</ele>
        <time>2024-03-30T11:53:36.000Z</time>
      </trkpt>
      <trkpt lat="48.08073" lon="3.28345">
        <ele>91</ele>
        <time>2024-03-30T11:53:37.000Z</time>
      </trkpt>
      <trkpt lat="48.08074" lon="3.28348">
        <ele>90.9</ele>
        <time>2024-03-30T11:53:38.000Z</time>
      </trkpt>
      <trkpt lat="48.08074" lon="3.28352">
        <ele>90.6</ele>
        <time>2024-03-30T11:53:39.000Z</time>
      </trkpt>
      <trkpt lat="48.08078" lon="3.2836">
        <ele>90.5</ele>
        <time>2024-03-30T11:53:41.000Z</time>
      </trkpt>
      <trkpt lat="48.0808" lon="3.28364">
        <ele>90.4</ele>
        <time>2024-03-30T11:53:42.000Z</time>
      </trkpt>
      <trkpt lat="48.08083" lon="3.28366">
        <ele>90.4</ele>
        <time>2024-03-30T11:53:43.000Z</time>
      </trkpt>
      <trkpt lat="48.08086" lon="3.28368">
        <ele>90.4</ele>
        <time>2024-03-30T11:53:44.000Z</time>
      </trkpt>
      <trkpt lat="48.08088" lon="3.2837">
        <ele>90.4</ele>
        <time>2024-03-30T11:53:45.000Z</time>
      </trkpt>
      <trkpt lat="48.08091" lon="3.28372">
        <ele>90.4</ele>
        <time>2024-03-30T11:53:46.000Z</time>
      </trkpt>
      <trkpt lat="48.08094" lon="3.28372">
        <ele>90.6</ele>
        <time>2024-03-30T11:53:47.000Z</time>
      </trkpt>
      <trkpt lat="48.08096" lon="3.28372">
        <ele>90.7</ele>
        <time>2024-03-30T11:53:48.000Z</time>
      </trkpt>
      <trkpt lat="48.08098" lon="3.28372">
        <ele>90.9</ele>
        <time>2024-03-30T11:53:49.000Z</time>
      </trkpt>
      <trkpt lat="48.081" lon="3.28373">
        <ele>90.9</ele>
        <time>2024-03-30T11:53:50.000Z</time>
      </trkpt>
      <trkpt lat="48.08102" lon="3.28373">
        <ele>91.1</ele>
        <time>2024-03-30T11:53:51.000Z</time>
      </trkpt>
      <trkpt lat="48.08105" lon="3.28374">
        <ele>91.2</ele>
        <time>2024-03-30T11:53:52.000Z</time>
      </trkpt>
      <trkpt lat="48.08112" lon="3.28376">
        <ele>91.5</ele>
        <time>2024-03-30T11:53:55.000Z</time>
      </trkpt>
      <trkpt lat="48.08115" lon="3.28376">
        <ele>91.7</ele>
        <time>2024-03-30T11:53:56.000Z</time>
      </trkpt>
      <trkpt lat="48.08117" lon="3.28377">
        <ele>91.8</ele>
        <time>2024-03-30T11:53:57.000Z</time>
      </trkpt>
      <trkpt lat="48.0812" lon="3.28378">
        <ele>92</ele>
        <time>2024-03-30T11:53:58.000Z</time>
      </trkpt>
      <trkpt lat="48.08132" lon="3.28383">
        <ele>92.7</ele>
        <time>2024-03-30T11:54:03.000Z</time>
      </trkpt>
      <trkpt lat="48.08153" lon="3.28393">
        <ele>93.5</ele>
        <time>2024-03-30T11:54:12.000Z</time>
      </trkpt>
      <trkpt lat="48.08163" lon="3.28397">
        <ele>93.6</ele>
        <time>2024-03-30T11:54:16.000Z</time>
      </trkpt>
      <trkpt lat="48.08167" lon="3.28399">
        <ele>93.6</ele>
        <time>2024-03-30T11:54:18.000Z</time>
      </trkpt>
      <trkpt lat="48.08169" lon="3.28399">
        <ele>93.7</ele>
        <time>2024-03-30T11:54:19.000Z</time>
      </trkpt>
      <trkpt lat="48.08171" lon="3.284">
        <ele>93.6</ele>
        <time>2024-03-30T11:54:20.000Z</time>
      </trkpt>
      <trkpt lat="48.08173" lon="3.284">
        <ele>93.7</ele>
        <time>2024-03-30T11:54:21.000Z</time>
      </trkpt>
      <trkpt lat="48.08183" lon="3.28404">
        <ele>93.7</ele>
        <time>2024-03-30T11:54:25.000Z</time>
      </trkpt>
      <trkpt lat="48.08185" lon="3.28405">
        <ele>93.7</ele>
        <time>2024-03-30T11:54:26.000Z</time>
      </trkpt>
      <trkpt lat="48.08188" lon="3.28406">
        <ele>93.8</ele>
        <time>2024-03-30T11:54:27.000Z</time>
      </trkpt>
      <trkpt lat="48.08191" lon="3.28407">
        <ele>93.8</ele>
        <time>2024-03-30T11:54:28.000Z</time>
      </trkpt>
      <trkpt lat="48.08201" lon="3.28411">
        <ele>93.7</ele>
        <time>2024-03-30T11:54:32.000Z</time>
      </trkpt>
      <trkpt lat="48.08206" lon="3.28412">
        <ele>93.6</ele>
        <time>2024-03-30T11:54:34.000Z</time>
      </trkpt>
      <trkpt lat="48.08208" lon="3.28412">
        <ele>93.7</ele>
        <time>2024-03-30T11:54:35.000Z</time>
      </trkpt>
      <trkpt lat="48.08211" lon="3.28412">
        <ele>93.7</ele>
        <time>2024-03-30T11:54:36.000Z</time>
      </trkpt>
      <trkpt lat="48.08218" lon="3.28413">
        <ele>93.6</ele>
        <time>2024-03-30T11:54:39.000Z</time>
      </trkpt>
      <trkpt lat="48.08221" lon="3.28412">
        <ele>93.8</ele>
        <time>2024-03-30T11:54:40.000Z</time>
      </trkpt>
      <trkpt lat="48.08223" lon="3.28411">
        <ele>94</ele>
        <time>2024-03-30T11:54:41.000Z</time>
      </trkpt>
      <trkpt lat="48.08239" lon="3.28407">
        <ele>94</ele>
        <time>2024-03-30T11:54:47.000Z</time>
      </trkpt>
      <trkpt lat="48.08262" lon="3.28399">
        <ele>93.7</ele>
        <time>2024-03-30T11:54:54.000Z</time>
      </trkpt>
      <trkpt lat="48.08288" lon="3.28386">
        <ele>93.2</ele>
        <time>2024-03-30T11:55:02.000Z</time>
      </trkpt>
      <trkpt lat="48.08291" lon="3.28384">
        <ele>93.2</ele>
        <time>2024-03-30T11:55:03.000Z</time>
      </trkpt>
      <trkpt lat="48.08294" lon="3.28384">
        <ele>92.8</ele>
        <time>2024-03-30T11:55:04.000Z</time>
      </trkpt>
      <trkpt lat="48.08298" lon="3.28383">
        <ele>92.5</ele>
        <time>2024-03-30T11:55:06.000Z</time>
      </trkpt>
      <trkpt lat="48.08299" lon="3.28382">
        <ele>92.6</ele>
        <time>2024-03-30T11:55:07.000Z</time>
      </trkpt>
      <trkpt lat="48.08301" lon="3.28382">
        <ele>92.4</ele>
        <time>2024-03-30T11:55:08.000Z</time>
      </trkpt>
      <trkpt lat="48.08303" lon="3.28383">
        <ele>91.8</ele>
        <time>2024-03-30T11:55:09.000Z</time>
      </trkpt>
      <trkpt lat="48.08303" lon="3.28383">
        <ele>91.8</ele>
        <time>2024-03-30T11:55:12.000Z</time>
      </trkpt>
      <trkpt lat="48.08303" lon="3.28385">
        <ele>91.3</ele>
        <time>2024-03-30T11:55:17.000Z</time>
      </trkpt>
      <trkpt lat="48.08303" lon="3.28386">
        <ele>91.1</ele>
        <time>2024-03-30T11:55:19.000Z</time>
      </trkpt>
      <trkpt lat="48.08302" lon="3.28387">
        <ele>91</ele>
        <time>2024-03-30T11:55:26.000Z</time>
      </trkpt>
      <trkpt lat="48.08302" lon="3.28387">
        <ele>91</ele>
        <time>2024-03-30T11:55:27.000Z</time>
      </trkpt>
      <trkpt lat="48.08302" lon="3.28387">
        <ele>91</ele>
        <time>2024-03-30T11:55:28.000Z</time>
      </trkpt>
      <trkpt lat="48.08302" lon="3.28388">
        <ele>90.7</ele>
        <time>2024-03-30T11:55:36.000Z</time>
      </trkpt>
      <trkpt lat="48.08302" lon="3.28389">
        <ele>90.5</ele>
        <time>2024-03-30T11:55:38.000Z</time>
      </trkpt>
      <trkpt lat="48.08302" lon="3.2839">
        <ele>90.3</ele>
        <time>2024-03-30T11:55:39.000Z</time>
      </trkpt>
      <trkpt lat="48.08302" lon="3.2839">
        <ele>90.3</ele>
        <time>2024-03-30T11:55:43.000Z</time>
      </trkpt>
      <trkpt lat="48.08302" lon="3.2839">
        <ele>90.3</ele>
        <time>2024-03-30T11:55:46.000Z</time>
      </trkpt>
      <trkpt lat="48.08303" lon="3.28393">
        <ele>89.6</ele>
        <time>2024-03-30T11:55:51.000Z</time>
      </trkpt>
      <trkpt lat="48.08303" lon="3.28394">
        <ele>89.4</ele>
        <time>2024-03-30T11:55:53.000Z</time>
      </trkpt>
      <trkpt lat="48.08303" lon="3.28394">
        <ele>89.4</ele>
        <time>2024-03-30T11:55:59.000Z</time>
      </trkpt>
      <trkpt lat="48.08303" lon="3.28394">
        <ele>89.4</ele>
        <time>2024-03-30T11:56:00.000Z</time>
      </trkpt>
      <trkpt lat="48.08303" lon="3.28395">
        <ele>89.2</ele>
        <time>2024-03-30T11:56:03.000Z</time>
      </trkpt>
      <trkpt lat="48.08304" lon="3.28396">
        <ele>88.9</ele>
        <time>2024-03-30T11:56:04.000Z</time>
      </trkpt>
      <trkpt lat="48.08304" lon="3.28402">
        <ele>87.8</ele>
        <time>2024-03-30T11:56:06.000Z</time>
      </trkpt>
      <trkpt lat="48.08304" lon="3.28403">
        <ele>87.6</ele>
        <time>2024-03-30T11:56:09.000Z</time>
      </trkpt>
      <trkpt lat="48.08304" lon="3.28406">
        <ele>87.1</ele>
        <time>2024-03-30T11:56:11.000Z</time>
      </trkpt>
      <trkpt lat="48.08304" lon="3.28413">
        <ele>85.8</ele>
        <time>2024-03-30T11:56:13.000Z</time>
      </trkpt>
      <trkpt lat="48.08308" lon="3.28431">
        <ele>83.5</ele>
        <time>2024-03-30T11:56:17.000Z</time>
      </trkpt>
      <trkpt lat="48.08309" lon="3.28436">
        <ele>82.9</ele>
        <time>2024-03-30T11:56:18.000Z</time>
      </trkpt>
      <trkpt lat="48.08312" lon="3.28459">
        <ele>80.4</ele>
        <time>2024-03-30T11:56:22.000Z</time>
      </trkpt>
      <trkpt lat="48.08313" lon="3.28467">
        <ele>79.6</ele>
        <time>2024-03-30T11:56:23.000Z</time>
      </trkpt>
      <trkpt lat="48.08316" lon="3.28492">
        <ele>77.3</ele>
        <time>2024-03-30T11:56:26.000Z</time>
      </trkpt>
      <trkpt lat="48.08318" lon="3.28502">
        <ele>76.4</ele>
        <time>2024-03-30T11:56:27.000Z</time>
      </trkpt>
      <trkpt lat="48.08321" lon="3.28522">
        <ele>74.5</ele>
        <time>2024-03-30T11:56:29.000Z</time>
      </trkpt>
      <trkpt lat="48.08322" lon="3.28531">
        <ele>73.9</ele>
        <time>2024-03-30T11:56:30.000Z</time>
      </trkpt>
      <trkpt lat="48.08323" lon="3.28538">
        <ele>73.6</ele>
        <time>2024-03-30T11:56:31.000Z</time>
      </trkpt>
      <trkpt lat="48.08323" lon="3.28542">
        <ele>73.5</ele>
        <time>2024-03-30T11:56:32.000Z</time>
      </trkpt>
      <trkpt lat="48.08324" lon="3.28545">
        <ele>73.4</ele>
        <time>2024-03-30T11:56:33.000Z</time>
      </trkpt>
      <trkpt lat="48.08324" lon="3.28548">
        <ele>73.3</ele>
        <time>2024-03-30T11:56:34.000Z</time>
      </trkpt>
      <trkpt lat="48.08325" lon="3.28549">
        <ele>73.2</ele>
        <time>2024-03-30T11:56:35.000Z</time>
      </trkpt>
      <trkpt lat="48.08325" lon="3.28549">
        <ele>73.2</ele>
        <time>2024-03-30T11:56:36.000Z</time>
      </trkpt>
      <trkpt lat="48.08325" lon="3.2855">
        <ele>73.2</ele>
        <time>2024-03-30T11:56:38.000Z</time>
      </trkpt>
      <trkpt lat="48.08324" lon="3.2855">
        <ele>73.2</ele>
        <time>2024-03-30T11:56:39.000Z</time>
      </trkpt>
      <trkpt lat="48.08325" lon="3.28551">
        <ele>73.2</ele>
        <time>2024-03-30T11:56:40.000Z</time>
      </trkpt>
      <trkpt lat="48.08324" lon="3.28551">
        <ele>73.2</ele>
        <time>2024-03-30T11:56:41.000Z</time>
      </trkpt>
      <trkpt lat="48.08324" lon="3.28552">
        <ele>73.1</ele>
        <time>2024-03-30T11:56:42.000Z</time>
      </trkpt>
      <trkpt lat="48.08324" lon="3.28552">
        <ele>73.1</ele>
        <time>2024-03-30T11:56:46.000Z</time>
      </trkpt>
      <trkpt lat="48.08324" lon="3.28552">
        <ele>73.1</ele>
        <time>2024-03-30T11:56:48.000Z</time>
      </trkpt>
      <trkpt lat="48.08324" lon="3.28553">
        <ele>73.1</ele>
        <time>2024-03-30T11:56:54.000Z</time>
      </trkpt>
      <trkpt lat="48.08323" lon="3.28554">
        <ele>73.1</ele>
        <time>2024-03-30T11:56:55.000Z</time>
      </trkpt>
      <trkpt lat="48.08322" lon="3.28556">
        <ele>73</ele>
        <time>2024-03-30T11:56:56.000Z</time>
      </trkpt>
      <trkpt lat="48.08321" lon="3.28557">
        <ele>73</ele>
        <time>2024-03-30T11:56:57.000Z</time>
      </trkpt>
      <trkpt lat="48.08319" lon="3.2856">
        <ele>73</ele>
        <time>2024-03-30T11:56:58.000Z</time>
      </trkpt>
      <trkpt lat="48.08314" lon="3.28573">
        <ele>73</ele>
        <time>2024-03-30T11:57:03.000Z</time>
      </trkpt>
      <trkpt lat="48.08313" lon="3.28576">
        <ele>73</ele>
        <time>2024-03-30T11:57:04.000Z</time>
      </trkpt>
      <trkpt lat="48.0831" lon="3.28605">
        <ele>73</ele>
        <time>2024-03-30T11:57:11.000Z</time>
      </trkpt>
      <trkpt lat="48.08312" lon="3.2863">
        <ele>73</ele>
        <time>2024-03-30T11:57:17.000Z</time>
      </trkpt>
      <trkpt lat="48.08312" lon="3.28642">
        <ele>73.1</ele>
        <time>2024-03-30T11:57:20.000Z</time>
      </trkpt>
      <trkpt lat="48.08312" lon="3.28645">
        <ele>73.2</ele>
        <time>2024-03-30T11:57:21.000Z</time>
      </trkpt>
      <trkpt lat="48.08312" lon="3.28648">
        <ele>73.3</ele>
        <time>2024-03-30T11:57:22.000Z</time>
      </trkpt>
      <trkpt lat="48.08313" lon="3.28649">
        <ele>73.4</ele>
        <time>2024-03-30T11:57:23.000Z</time>
      </trkpt>
      <trkpt lat="48.08313" lon="3.28651">
        <ele>73.4</ele>
        <time>2024-03-30T11:57:24.000Z</time>
      </trkpt>
      <trkpt lat="48.08313" lon="3.28652">
        <ele>73.5</ele>
        <time>2024-03-30T11:57:25.000Z</time>
      </trkpt>
      <trkpt lat="48.08311" lon="3.28683">
        <ele>73.4</ele>
        <time>2024-03-30T11:57:46.000Z</time>
      </trkpt>
      <trkpt lat="48.08309" lon="3.28683">
        <ele>73.4</ele>
        <time>2024-03-30T11:57:47.000Z</time>
      </trkpt>
      <trkpt lat="48.08305" lon="3.28684">
        <ele>73.4</ele>
        <time>2024-03-30T11:57:48.000Z</time>
      </trkpt>
      <trkpt lat="48.083" lon="3.28685">
        <ele>73.3</ele>
        <time>2024-03-30T11:57:51.000Z</time>
      </trkpt>
      <trkpt lat="48.08298" lon="3.28686">
        <ele>73.3</ele>
        <time>2024-03-30T11:57:52.000Z</time>
      </trkpt>
      <trkpt lat="48.08298" lon="3.28686">
        <ele>73.3</ele>
        <time>2024-03-30T11:57:53.000Z</time>
      </trkpt>
      <trkpt lat="48.08299" lon="3.28686">
        <ele>73.3</ele>
        <time>2024-03-30T11:57:54.000Z</time>
      </trkpt>
      <trkpt lat="48.08299" lon="3.28688">
        <ele>73.2</ele>
        <time>2024-03-30T11:57:55.000Z</time>
      </trkpt>
      <trkpt lat="48.08299" lon="3.2869">
        <ele>73.2</ele>
        <time>2024-03-30T11:57:56.000Z</time>
      </trkpt>
      <trkpt lat="48.08299" lon="3.28701">
        <ele>73</ele>
        <time>2024-03-30T11:57:59.000Z</time>
      </trkpt>
      <trkpt lat="48.083" lon="3.28717">
        <ele>73</ele>
        <time>2024-03-30T11:58:03.000Z</time>
      </trkpt>
      <trkpt lat="48.08301" lon="3.28722">
        <ele>73</ele>
        <time>2024-03-30T11:58:04.000Z</time>
      </trkpt>
      <trkpt lat="48.08303" lon="3.2873">
        <ele>73</ele>
        <time>2024-03-30T11:58:06.000Z</time>
      </trkpt>
      <trkpt lat="48.08306" lon="3.28758">
        <ele>72.7</ele>
        <time>2024-03-30T11:58:13.000Z</time>
      </trkpt>
      <trkpt lat="48.08306" lon="3.28761">
        <ele>72.6</ele>
        <time>2024-03-30T11:58:14.000Z</time>
      </trkpt>
      <trkpt lat="48.08306" lon="3.28763">
        <ele>72.5</ele>
        <time>2024-03-30T11:58:15.000Z</time>
      </trkpt>
      <trkpt lat="48.08306" lon="3.28766">
        <ele>72.4</ele>
        <time>2024-03-30T11:58:16.000Z</time>
      </trkpt>
      <trkpt lat="48.08307" lon="3.28775">
        <ele>72.1</ele>
        <time>2024-03-30T11:58:19.000Z</time>
      </trkpt>
      <trkpt lat="48.08308" lon="3.28779">
        <ele>72</ele>
        <time>2024-03-30T11:58:20.000Z</time>
      </trkpt>
      <trkpt lat="48.08309" lon="3.28783">
        <ele>72</ele>
        <time>2024-03-30T11:58:21.000Z</time>
      </trkpt>
      <trkpt lat="48.08312" lon="3.288">
        <ele>72</ele>
        <time>2024-03-30T11:58:24.000Z</time>
      </trkpt>
      <trkpt lat="48.08314" lon="3.28812">
        <ele>72</ele>
        <time>2024-03-30T11:58:26.000Z</time>
      </trkpt>
      <trkpt lat="48.08318" lon="3.28843">
        <ele>72</ele>
        <time>2024-03-30T11:58:31.000Z</time>
      </trkpt>
      <trkpt lat="48.08321" lon="3.28903">
        <ele>72.2</ele>
        <time>2024-03-30T11:58:40.000Z</time>
      </trkpt>
      <trkpt lat="48.08318" lon="3.28936">
        <ele>72.2</ele>
        <time>2024-03-30T11:58:45.000Z</time>
      </trkpt>
      <trkpt lat="48.08318" lon="3.28942">
        <ele>72</ele>
        <time>2024-03-30T11:58:46.000Z</time>
      </trkpt>
      <trkpt lat="48.08317" lon="3.28948">
        <ele>72.1</ele>
        <time>2024-03-30T11:58:47.000Z</time>
      </trkpt>
      <trkpt lat="48.08316" lon="3.28954">
        <ele>72.3</ele>
        <time>2024-03-30T11:58:48.000Z</time>
      </trkpt>
      <trkpt lat="48.08315" lon="3.2896">
        <ele>72.6</ele>
        <time>2024-03-30T11:58:49.000Z</time>
      </trkpt>
      <trkpt lat="48.08313" lon="3.28966">
        <ele>72.8</ele>
        <time>2024-03-30T11:58:50.000Z</time>
      </trkpt>
      <trkpt lat="48.08312" lon="3.28972">
        <ele>73</ele>
        <time>2024-03-30T11:58:51.000Z</time>
      </trkpt>
      <trkpt lat="48.0831" lon="3.28977">
        <ele>73</ele>
        <time>2024-03-30T11:58:52.000Z</time>
      </trkpt>
      <trkpt lat="48.08309" lon="3.28981">
        <ele>73</ele>
        <time>2024-03-30T11:58:53.000Z</time>
      </trkpt>
      <trkpt lat="48.08308" lon="3.28986">
        <ele>73</ele>
        <time>2024-03-30T11:58:54.000Z</time>
      </trkpt>
      <trkpt lat="48.08307" lon="3.28991">
        <ele>73</ele>
        <time>2024-03-30T11:58:55.000Z</time>
      </trkpt>
      <trkpt lat="48.08306" lon="3.28995">
        <ele>73</ele>
        <time>2024-03-30T11:58:56.000Z</time>
      </trkpt>
      <trkpt lat="48.08305" lon="3.28998">
        <ele>73</ele>
        <time>2024-03-30T11:58:57.000Z</time>
      </trkpt>
      <trkpt lat="48.08301" lon="3.29018">
        <ele>72.7</ele>
        <time>2024-03-30T11:59:01.000Z</time>
      </trkpt>
      <trkpt lat="48.08286" lon="3.29057">
        <ele>71.5</ele>
        <time>2024-03-30T11:59:09.000Z</time>
      </trkpt>
      <trkpt lat="48.08284" lon="3.29061">
        <ele>71.3</ele>
        <time>2024-03-30T11:59:10.000Z</time>
      </trkpt>
      <trkpt lat="48.08283" lon="3.29066">
        <ele>71</ele>
        <time>2024-03-30T11:59:11.000Z</time>
      </trkpt>
      <trkpt lat="48.08282" lon="3.29071">
        <ele>70.7</ele>
        <time>2024-03-30T11:59:12.000Z</time>
      </trkpt>
      <trkpt lat="48.0828" lon="3.29076">
        <ele>70.4</ele>
        <time>2024-03-30T11:59:13.000Z</time>
      </trkpt>
      <trkpt lat="48.08277" lon="3.29086">
        <ele>70.1</ele>
        <time>2024-03-30T11:59:15.000Z</time>
      </trkpt>
      <trkpt lat="48.08272" lon="3.291">
        <ele>70.5</ele>
        <time>2024-03-30T11:59:18.000Z</time>
      </trkpt>
      <trkpt lat="48.08267" lon="3.29118">
        <ele>71.1</ele>
        <time>2024-03-30T11:59:22.000Z</time>
      </trkpt>
      <trkpt lat="48.08265" lon="3.29122">
        <ele>71.3</ele>
        <time>2024-03-30T11:59:23.000Z</time>
      </trkpt>
      <trkpt lat="48.08264" lon="3.29127">
        <ele>71.6</ele>
        <time>2024-03-30T11:59:24.000Z</time>
      </trkpt>
      <trkpt lat="48.08263" lon="3.29131">
        <ele>71.9</ele>
        <time>2024-03-30T11:59:25.000Z</time>
      </trkpt>
      <trkpt lat="48.08262" lon="3.29135">
        <ele>72.2</ele>
        <time>2024-03-30T11:59:26.000Z</time>
      </trkpt>
      <trkpt lat="48.08261" lon="3.2914">
        <ele>72.3</ele>
        <time>2024-03-30T11:59:27.000Z</time>
      </trkpt>
      <trkpt lat="48.0826" lon="3.29144">
        <ele>72.1</ele>
        <time>2024-03-30T11:59:28.000Z</time>
      </trkpt>
      <trkpt lat="48.08259" lon="3.29148">
        <ele>71.9</ele>
        <time>2024-03-30T11:59:29.000Z</time>
      </trkpt>
      <trkpt lat="48.08258" lon="3.29152">
        <ele>71.7</ele>
        <time>2024-03-30T11:59:30.000Z</time>
      </trkpt>
      <trkpt lat="48.08256" lon="3.29154">
        <ele>71.6</ele>
        <time>2024-03-30T11:59:31.000Z</time>
      </trkpt>
      <trkpt lat="48.08254" lon="3.29155">
        <ele>71.5</ele>
        <time>2024-03-30T11:59:32.000Z</time>
      </trkpt>
      <trkpt lat="48.08252" lon="3.29155">
        <ele>71.5</ele>
        <time>2024-03-30T11:59:33.000Z</time>
      </trkpt>
      <trkpt lat="48.08249" lon="3.29153">
        <ele>71.5</ele>
        <time>2024-03-30T11:59:34.000Z</time>
      </trkpt>
      <trkpt lat="48.08242" lon="3.29148">
        <ele>71.4</ele>
        <time>2024-03-30T11:59:36.000Z</time>
      </trkpt>
      <trkpt lat="48.08238" lon="3.29145">
        <ele>71.3</ele>
        <time>2024-03-30T11:59:37.000Z</time>
      </trkpt>
      <trkpt lat="48.08211" lon="3.29125">
        <ele>70.8</ele>
        <time>2024-03-30T11:59:42.000Z</time>
      </trkpt>
      <trkpt lat="48.08194" lon="3.2911">
        <ele>70.9</ele>
        <time>2024-03-30T11:59:45.000Z</time>
      </trkpt>
      <trkpt lat="48.0819" lon="3.29106">
        <ele>70.7</ele>
        <time>2024-03-30T11:59:46.000Z</time>
      </trkpt>
      <trkpt lat="48.08186" lon="3.29102">
        <ele>70.6</ele>
        <time>2024-03-30T11:59:47.000Z</time>
      </trkpt>
      <trkpt lat="48.08182" lon="3.29098">
        <ele>70.5</ele>
        <time>2024-03-30T11:59:48.000Z</time>
      </trkpt>
      <trkpt lat="48.08179" lon="3.29094">
        <ele>70.5</ele>
        <time>2024-03-30T11:59:49.000Z</time>
      </trkpt>
      <trkpt lat="48.08176" lon="3.2909">
        <ele>70.6</ele>
        <time>2024-03-30T11:59:50.000Z</time>
      </trkpt>
      <trkpt lat="48.08173" lon="3.29086">
        <ele>70.7</ele>
        <time>2024-03-30T11:59:51.000Z</time>
      </trkpt>
      <trkpt lat="48.08171" lon="3.29083">
        <ele>70.8</ele>
        <time>2024-03-30T11:59:52.000Z</time>
      </trkpt>
      <trkpt lat="48.08169" lon="3.2908">
        <ele>70.8</ele>
        <time>2024-03-30T11:59:53.000Z</time>
      </trkpt>
      <trkpt lat="48.08168" lon="3.29077">
        <ele>70.7</ele>
        <time>2024-03-30T11:59:54.000Z</time>
      </trkpt>
      <trkpt lat="48.08168" lon="3.29076">
        <ele>70.7</ele>
        <time>2024-03-30T11:59:55.000Z</time>
      </trkpt>
      <trkpt lat="48.08167" lon="3.29076">
        <ele>70.7</ele>
        <time>2024-03-30T11:59:56.000Z</time>
      </trkpt>
      <trkpt lat="48.08167" lon="3.29076">
        <ele>70.7</ele>
        <time>2024-03-30T11:59:57.000Z</time>
      </trkpt>
      <trkpt lat="48.08167" lon="3.29076">
        <ele>70.7</ele>
        <time>2024-03-30T11:59:58.000Z</time>
      </trkpt>
    </trkseg>
  </trk>
</gpx>